Time,TemperatureF,DewpointF,PressureIn,WindDirection,WindDirectionDegrees,WindSpeedMPH,WindSpeedGustMPH,Humidity,HourlyPrecipIn,Conditions,Clouds,dailyrainin,SoftwareType,DateUTC
2013-02-27 00:00:00,43.7,42.6,29.77,NE,44,15.0,22.0,96,0.30,,,0.52,meteohub,2013-02-27 05:00:00,
2013-02-27 00:01:00,43.7,42.6,29.77,ENE,64,13.0,22.0,96,0.30,,,0.58,meteohub,2013-02-27 05:01:00,
2013-02-27 00:05:00,43.5,42.4,29.76,NE,51,12.0,22.0,96,0.30,,,0.02,meteohub,2013-02-27 05:05:00,
2013-02-27 00:06:00,43.5,42.4,29.76,ENE,61,8.0,22.0,96,0.31,,,0.02,meteohub,2013-02-27 05:06:00,
2013-02-27 00:11:00,43.5,42.4,29.75,East,84,14.0,23.0,96,0.30,,,0.03,meteohub,2013-02-27 05:11:00,
2013-02-27 00:12:00,43.5,42.4,29.75,NE,39,11.0,23.0,96,0.30,,,0.03,meteohub,2013-02-27 05:12:00,
2013-02-27 00:16:00,43.5,42.4,29.75,ENE,76,21.0,23.0,96,0.29,,,0.05,meteohub,2013-02-27 05:16:00,
2013-02-27 00:17:00,43.5,42.4,29.75,NE,51,10.0,23.0,96,0.29,,,0.05,meteohub,2013-02-27 05:17:00,
2013-02-27 00:21:00,43.5,42.4,29.75,ENE,57,14.0,23.0,96,0.29,,,0.08,meteohub,2013-02-27 05:21:00,
2013-02-27 00:22:00,43.5,42.4,29.75,NE,49,15.0,23.0,96,0.29,,,0.08,meteohub,2013-02-27 05:22:00,
2013-02-27 00:23:00,43.7,42.6,29.74,NE,45,13.0,23.0,96,0.29,,,0.08,meteohub,2013-02-27 05:23:00,
2013-02-27 00:26:00,43.9,42.8,29.74,NNE,30,12.0,22.0,96,0.29,,,0.10,meteohub,2013-02-27 05:26:00,
2013-02-27 00:27:00,43.9,42.8,29.74,NE,47,10.0,22.0,96,0.29,,,0.10,meteohub,2013-02-27 05:27:00,
2013-02-27 00:29:00,43.7,42.6,29.74,NE,41,9.0,22.0,96,0.29,,,0.10,meteohub,2013-02-27 05:29:00,
2013-02-27 00:31:00,43.5,42.4,29.74,ENE,58,12.0,22.0,96,0.30,,,0.13,meteohub,2013-02-27 05:31:00,
2013-02-27 00:32:00,43.5,42.4,29.74,East,84,13.0,22.0,96,0.30,,,0.13,meteohub,2013-02-27 05:32:00,
2013-02-27 00:34:00,43.3,42.3,29.74,ENE,71,14.0,22.0,96,0.30,,,0.13,meteohub,2013-02-27 05:34:00,
2013-02-27 00:37:00,43.3,42.3,29.73,NE,52,12.0,23.0,96,0.31,,,0.16,meteohub,2013-02-27 05:37:00,
2013-02-27 00:39:00,43.5,42.4,29.73,ENE,69,17.0,23.0,96,0.31,,,0.16,meteohub,2013-02-27 05:39:00,
2013-02-27 00:42:00,43.9,43.2,29.73,ENE,70,21.0,23.0,97,0.28,,,0.16,meteohub,2013-02-27 05:42:00,
2013-02-27 00:44:00,44.1,43.0,29.73,NNE,26,11.0,23.0,96,0.28,,,0.16,meteohub,2013-02-27 05:44:00,
2013-02-27 00:47:00,44.1,43.0,29.73,ENE,60,12.0,23.0,96,0.28,,,0.19,meteohub,2013-02-27 05:47:00,
2013-02-27 00:49:00,44.1,43.0,29.73,NNE,30,13.0,23.0,96,0.28,,,0.19,meteohub,2013-02-27 05:49:00,
2013-02-27 00:50:00,44.1,43.0,29.73,NE,52,17.0,23.0,96,0.28,,,0.19,meteohub,2013-02-27 05:50:00,
2013-02-27 00:52:00,44.1,43.0,29.72,ENE,69,17.0,25.0,96,0.29,,,0.22,meteohub,2013-02-27 05:52:00,
2013-02-27 00:53:00,44.1,43.0,29.72,NE,46,17.0,25.0,96,0.29,,,0.22,meteohub,2013-02-27 05:53:00,
2013-02-27 00:54:00,44.1,43.0,29.72,NNE,24,13.0,25.0,96,0.29,,,0.22,meteohub,2013-02-27 05:54:00,
2013-02-27 00:55:00,44.1,43.0,29.72,ENE,69,12.0,25.0,96,0.25,,,0.23,meteohub,2013-02-27 05:55:00,
2013-02-27 00:58:00,44.2,43.2,29.71,NE,36,9.0,25.0,96,0.25,,,0.23,meteohub,2013-02-27 05:58:00,
2013-02-27 01:00:00,44.2,43.2,29.71,NE,50,16.0,25.0,96,0.25,,,0.23,meteohub,2013-02-27 06:00:00,
2013-02-27 01:03:00,44.2,43.2,29.71,ENE,63,13.0,25.0,96,0.24,,,0.24,meteohub,2013-02-27 06:03:00,
2013-02-27 01:05:00,44.2,43.2,29.71,NE,44,12.0,25.0,96,0.24,,,0.25,meteohub,2013-02-27 06:05:00,
2013-02-27 01:08:00,44.2,43.2,29.70,NE,34,12.0,21.0,96,0.23,,,0.25,meteohub,2013-02-27 06:08:00,
2013-02-27 01:09:00,44.2,43.2,29.70,North,355,13.0,21.0,96,0.23,,,0.25,meteohub,2013-02-27 06:09:00,
2013-02-27 01:10:00,44.2,43.2,29.70,NE,56,16.0,21.0,96,0.22,,,0.26,meteohub,2013-02-27 06:10:00,
2013-02-27 01:11:00,44.2,43.2,29.70,ENE,73,14.0,21.0,96,0.22,,,0.26,meteohub,2013-02-27 06:11:00,
2013-02-27 01:14:00,44.2,43.2,29.70,East,85,7.0,21.0,96,0.22,,,0.26,meteohub,2013-02-27 06:14:00,
2013-02-27 01:15:00,44.2,43.2,29.70,NE,45,8.0,21.0,96,0.20,,,0.26,meteohub,2013-02-27 06:15:00,
2013-02-27 01:16:00,44.1,43.0,29.70,NE,51,10.0,21.0,96,0.20,,,0.26,meteohub,2013-02-27 06:16:00,
2013-02-27 01:19:00,44.2,43.2,29.69,NNE,31,14.0,21.0,96,0.20,,,0.26,meteohub,2013-02-27 06:19:00,
2013-02-27 01:20:00,44.2,43.2,29.69,NE,42,8.0,21.0,96,0.20,,,0.27,meteohub,2013-02-27 06:20:00,
2013-02-27 01:21:00,44.2,43.2,29.68,ENE,65,14.0,21.0,96,0.18,,,0.27,meteohub,2013-02-27 06:21:00,
2013-02-27 01:24:00,44.2,43.2,29.68,ENE,67,12.0,21.0,96,0.18,,,0.27,meteohub,2013-02-27 06:24:00,
2013-02-27 01:25:00,44.2,43.2,29.68,NE,56,13.0,21.0,96,0.15,,,0.27,meteohub,2013-02-27 06:25:00,
2013-02-27 01:26:00,44.2,43.2,29.68,ENE,69,8.0,21.0,96,0.15,,,0.27,meteohub,2013-02-27 06:26:00,
2013-02-27 01:27:00,44.2,43.2,29.68,ENE,78,14.0,21.0,96,0.15,,,0.27,meteohub,2013-02-27 06:27:00,
2013-02-27 01:29:00,44.2,43.2,29.68,NE,55,10.0,21.0,96,0.15,,,0.27,meteohub,2013-02-27 06:29:00,
2013-02-27 01:30:00,44.1,43.0,29.68,NE,40,7.0,21.0,96,0.14,,,0.28,meteohub,2013-02-27 06:30:00,
2013-02-27 01:32:00,44.1,43.0,29.68,ENE,78,9.0,21.0,96,0.14,,,0.28,meteohub,2013-02-27 06:32:00,
2013-02-27 01:34:00,44.2,43.2,29.68,ENE,63,11.0,21.0,96,0.14,,,0.28,meteohub,2013-02-27 06:34:00,
2013-02-27 01:35:00,44.2,43.2,29.68,NE,55,10.0,20.0,96,0.12,,,0.28,meteohub,2013-02-27 06:35:00,
2013-02-27 01:37:00,44.2,43.2,29.68,NE,44,14.0,20.0,96,0.12,,,0.28,meteohub,2013-02-27 06:37:00,
2013-02-27 01:39:00,44.1,43.0,29.68,ENE,59,7.0,20.0,96,0.12,,,0.28,meteohub,2013-02-27 06:39:00,
2013-02-27 01:40:00,44.1,43.0,29.68,NE,39,6.0,20.0,96,0.12,,,0.28,meteohub,2013-02-27 06:40:00,
2013-02-27 01:41:00,44.1,43.0,29.68,NE,46,4.0,20.0,96,0.10,,,0.28,meteohub,2013-02-27 06:41:00,
2013-02-27 01:42:00,44.1,43.0,29.68,NNE,26,8.0,20.0,96,0.10,,,0.28,meteohub,2013-02-27 06:42:00,
2013-02-27 01:44:00,44.4,43.3,29.68,ESE,102,17.0,20.0,96,0.10,,,0.28,meteohub,2013-02-27 06:44:00,
2013-02-27 01:45:00,45.0,44.2,29.68,ENE,69,15.0,20.0,97,0.08,,,0.28,meteohub,2013-02-27 06:45:00,
2013-02-27 01:46:00,45.1,44.4,29.67,East,81,11.0,19.0,97,0.08,,,0.28,meteohub,2013-02-27 06:46:00,
2013-02-27 01:47:00,45.1,44.4,29.67,ENE,69,10.0,19.0,97,0.08,,,0.28,meteohub,2013-02-27 06:47:00,
2013-02-27 01:49:00,45.1,44.4,29.67,ENE,76,13.0,19.0,97,0.08,,,0.28,meteohub,2013-02-27 06:49:00,
2013-02-27 01:50:00,45.1,44.4,29.67,ENE,57,10.0,21.0,97,0.06,,,0.28,meteohub,2013-02-27 06:50:00,
2013-02-27 01:51:00,45.1,44.1,29.66,East,84,14.0,21.0,96,0.06,,,0.28,meteohub,2013-02-27 06:51:00,
2013-02-27 01:52:00,45.0,43.9,29.66,NE,46,15.0,21.0,96,0.06,,,0.28,meteohub,2013-02-27 06:52:00,
2013-02-27 01:55:00,44.8,43.7,29.66,ENE,68,9.0,21.0,96,0.06,,,0.28,meteohub,2013-02-27 06:55:00,
2013-02-27 01:56:00,44.6,43.5,29.66,ENE,61,9.0,21.0,96,0.05,,,0.29,meteohub,2013-02-27 06:56:00,
2013-02-27 01:57:00,44.4,43.3,29.66,East,96,10.0,21.0,96,0.05,,,0.29,meteohub,2013-02-27 06:57:00,
2013-02-27 02:00:00,44.4,43.3,29.65,East,86,15.0,21.0,96,0.05,,,0.29,meteohub,2013-02-27 07:00:00,
2013-02-27 02:01:00,44.4,43.3,29.65,ENE,64,12.0,20.0,96,0.05,,,0.30,meteohub,2013-02-27 07:01:00,
2013-02-27 02:02:00,44.6,43.9,29.65,ENE,61,14.0,20.0,97,0.05,,,0.30,meteohub,2013-02-27 07:02:00,
2013-02-27 02:05:00,45.1,44.4,29.65,East,82,14.0,20.0,97,0.05,,,0.30,meteohub,2013-02-27 07:05:00,
2013-02-27 02:06:00,45.1,44.4,29.64,East,94,17.0,18.0,97,0.06,,,0.32,meteohub,2013-02-27 07:06:00,
2013-02-27 02:07:00,45.1,44.4,29.64,ENE,66,11.0,18.0,97,0.06,,,0.32,meteohub,2013-02-27 07:07:00,
2013-02-27 02:08:00,45.1,44.4,29.64,ENE,63,14.0,18.0,97,0.06,,,0.32,meteohub,2013-02-27 07:08:00,
2013-02-27 02:10:00,45.1,44.4,29.62,East,91,16.0,18.0,97,0.06,,,0.32,meteohub,2013-02-27 07:10:00,
2013-02-27 02:12:00,45.0,43.9,29.62,East,90,16.0,18.0,96,0.06,,,0.32,meteohub,2013-02-27 07:12:00,
2013-02-27 02:13:00,45.0,43.9,29.62,NE,51,11.0,18.0,96,0.06,,,0.32,meteohub,2013-02-27 07:13:00,
2013-02-27 02:16:00,45.0,43.9,29.62,NE,51,13.0,22.0,96,0.07,,,0.33,meteohub,2013-02-27 07:16:00,
2013-02-27 02:17:00,45.0,44.2,29.62,East,88,13.0,22.0,97,0.07,,,0.33,meteohub,2013-02-27 07:17:00,
2013-02-27 02:18:00,45.0,44.2,29.62,East,87,13.0,22.0,97,0.07,,,0.33,meteohub,2013-02-27 07:18:00,
2013-02-27 02:21:00,45.7,45.0,29.62,ENE,74,12.0,22.0,97,0.06,,,0.33,meteohub,2013-02-27 07:21:00,
2013-02-27 02:22:00,45.7,45.0,29.62,ENE,70,14.0,22.0,97,0.06,,,0.33,meteohub,2013-02-27 07:22:00,
2013-02-27 02:23:00,45.7,45.0,29.62,ENE,72,12.0,22.0,97,0.06,,,0.33,meteohub,2013-02-27 07:23:00,
2013-02-27 02:24:00,45.7,45.0,29.62,East,94,13.0,22.0,97,0.06,,,0.33,meteohub,2013-02-27 07:24:00,
2013-02-27 02:26:00,45.9,45.1,29.62,ENE,68,17.0,22.0,97,0.06,,,0.33,meteohub,2013-02-27 07:26:00,
2013-02-27 02:27:00,45.9,45.1,29.61,ENE,74,15.0,22.0,97,0.06,,,0.33,meteohub,2013-02-27 07:27:00,
2013-02-27 02:28:00,46.0,45.3,29.61,East,84,16.0,22.0,97,0.06,,,0.33,meteohub,2013-02-27 07:28:00,
2013-02-27 02:29:00,46.0,45.3,29.61,ENE,76,16.0,22.0,97,0.06,,,0.33,meteohub,2013-02-27 07:29:00,
2013-02-27 02:31:00,46.0,45.3,29.61,ENE,66,12.0,19.0,97,0.05,,,0.33,meteohub,2013-02-27 07:31:00,
2013-02-27 02:32:00,46.0,45.3,29.61,ENE,65,11.0,19.0,97,0.05,,,0.33,meteohub,2013-02-27 07:32:00,
2013-02-27 02:33:00,46.0,45.3,29.61,ENE,72,12.0,19.0,97,0.05,,,0.33,meteohub,2013-02-27 07:33:00,
2013-02-27 02:34:00,46.0,45.3,29.61,East,84,15.0,19.0,97,0.05,,,0.33,meteohub,2013-02-27 07:34:00,
2013-02-27 02:36:00,45.9,45.1,29.61,ENE,71,13.0,18.0,97,0.05,,,0.33,meteohub,2013-02-27 07:36:00,
2013-02-27 02:38:00,45.9,45.1,29.61,East,82,13.0,18.0,97,0.05,,,0.33,meteohub,2013-02-27 07:38:00,
2013-02-27 02:39:00,45.7,44.6,29.61,ENE,69,16.0,18.0,96,0.05,,,0.33,meteohub,2013-02-27 07:39:00,
2013-02-27 02:40:00,45.7,45.0,29.61,ENE,74,13.0,18.0,97,0.05,,,0.33,meteohub,2013-02-27 07:40:00,
2013-02-27 02:41:00,45.7,45.0,29.60,ENE,65,9.0,18.0,97,0.05,,,0.33,meteohub,2013-02-27 07:41:00,
2013-02-27 02:43:00,45.9,45.1,29.61,ENE,74,10.0,18.0,97,0.05,,,0.33,meteohub,2013-02-27 07:43:00,
2013-02-27 02:44:00,45.9,45.1,29.61,East,88,10.0,18.0,97,0.05,,,0.33,meteohub,2013-02-27 07:44:00,
2013-02-27 02:45:00,45.9,45.1,29.60,East,91,10.0,17.0,97,0.05,,,0.33,meteohub,2013-02-27 07:45:00,
2013-02-27 02:47:00,45.9,45.1,29.60,ENE,74,11.0,17.0,97,0.05,,,0.33,meteohub,2013-02-27 07:47:00,
2013-02-27 02:48:00,45.9,45.1,29.60,ENE,68,12.0,17.0,97,0.05,,,0.33,meteohub,2013-02-27 07:48:00,
2013-02-27 02:49:00,45.9,45.1,29.60,ESE,108,13.0,17.0,97,0.05,,,0.33,meteohub,2013-02-27 07:49:00,
2013-02-27 02:51:00,46.2,45.5,29.60,East,89,14.0,19.0,97,0.05,,,0.33,meteohub,2013-02-27 07:51:00,
2013-02-27 02:52:00,46.4,45.7,29.60,ENE,74,13.0,19.0,97,0.05,,,0.33,meteohub,2013-02-27 07:52:00,
2013-02-27 02:53:00,46.6,45.9,29.60,ENE,74,8.0,19.0,97,0.05,,,0.33,meteohub,2013-02-27 07:53:00,
2013-02-27 02:54:00,46.6,45.9,29.59,East,90,11.0,19.0,97,0.05,,,0.33,meteohub,2013-02-27 07:54:00,
2013-02-27 02:56:00,46.8,46.0,29.59,ENE,72,9.0,19.0,97,0.04,,,0.33,meteohub,2013-02-27 07:56:00,
2013-02-27 02:57:00,46.9,46.2,29.59,ENE,63,11.0,19.0,97,0.04,,,0.33,meteohub,2013-02-27 07:57:00,
2013-02-27 02:58:00,47.1,46.4,29.59,SE,126,8.0,19.0,97,0.04,,,0.33,meteohub,2013-02-27 07:58:00,
2013-02-27 02:59:00,47.1,46.4,29.59,NE,46,7.0,19.0,97,0.04,,,0.33,meteohub,2013-02-27 07:59:00,
2013-02-27 03:01:00,46.9,46.2,29.59,ENE,68,9.0,19.0,97,0.02,,,0.33,meteohub,2013-02-27 08:01:00,
2013-02-27 03:03:00,47.3,46.6,29.58,NE,53,7.0,19.0,97,0.02,,,0.33,meteohub,2013-02-27 08:03:00,
2013-02-27 03:04:00,47.5,46.8,29.58,ENE,64,11.0,19.0,97,0.02,,,0.33,meteohub,2013-02-27 08:04:00,
2013-02-27 03:06:00,47.5,46.8,29.58,ENE,74,10.0,21.0,97,0.01,,,0.33,meteohub,2013-02-27 08:06:00,
2013-02-27 03:08:00,47.3,46.6,29.57,East,90,18.0,21.0,97,0.01,,,0.33,meteohub,2013-02-27 08:08:00,
2013-02-27 03:09:00,47.3,46.6,29.57,East,91,17.0,21.0,97,0.01,,,0.33,meteohub,2013-02-27 08:09:00,
2013-02-27 03:11:00,48.2,47.3,29.57,ENE,76,10.0,23.0,97,0.01,,,0.33,meteohub,2013-02-27 08:11:00,
2013-02-27 03:13:00,48.6,47.7,29.57,East,97,14.0,23.0,97,0.01,,,0.33,meteohub,2013-02-27 08:13:00,
2013-02-27 03:14:00,48.6,47.7,29.58,NNE,29,14.0,23.0,97,0.01,,,0.33,meteohub,2013-02-27 08:14:00,
2013-02-27 03:16:00,49.3,48.4,29.58,NE,54,8.0,23.0,97,0.00,,,0.33,meteohub,2013-02-27 08:16:00,
2013-02-27 03:18:00,49.6,48.7,29.57,ESE,121,10.0,23.0,97,0.00,,,0.33,meteohub,2013-02-27 08:18:00,
2013-02-27 03:19:00,49.5,48.6,29.57,ENE,72,11.0,23.0,97,0.00,,,0.33,meteohub,2013-02-27 08:19:00,
2013-02-27 03:20:00,49.5,48.6,29.57,East,84,13.0,23.0,97,0.00,,,0.33,meteohub,2013-02-27 08:20:00,
2013-02-27 03:21:00,50.0,49.5,29.57,ESE,106,15.0,23.0,98,0.00,,,0.33,meteohub,2013-02-27 08:21:00,
2013-02-27 03:24:00,50.2,49.3,29.57,ENE,70,16.0,23.0,97,0.00,,,0.33,meteohub,2013-02-27 08:24:00,
2013-02-27 03:25:00,50.2,49.3,29.57,ENE,66,13.0,23.0,97,0.00,,,0.33,meteohub,2013-02-27 08:25:00,
2013-02-27 03:26:00,49.6,48.7,29.57,ENE,77,12.0,23.0,97,0.00,,,0.33,meteohub,2013-02-27 08:26:00,
2013-02-27 03:29:00,49.8,48.9,29.57,ENE,63,7.0,23.0,97,0.00,,,0.33,meteohub,2013-02-27 08:29:00,
2013-02-27 03:30:00,49.8,48.9,29.57,East,86,7.0,23.0,97,0.00,,,0.33,meteohub,2013-02-27 08:30:00,
2013-02-27 03:31:00,49.8,48.9,29.56,ENE,65,9.0,23.0,97,0.00,,,0.33,meteohub,2013-02-27 08:31:00,
2013-02-27 03:35:00,48.9,48.0,29.56,ENE,76,13.0,23.0,97,0.00,,,0.33,meteohub,2013-02-27 08:35:00,
2013-02-27 03:36:00,49.3,48.4,29.55,East,84,16.0,23.0,97,0.00,,,0.33,meteohub,2013-02-27 08:36:00,
2013-02-27 03:37:00,49.5,48.6,29.56,ENE,72,11.0,23.0,97,0.00,,,0.33,meteohub,2013-02-27 08:37:00,
2013-02-27 03:40:00,49.5,48.6,29.55,ENE,60,8.0,23.0,97,0.00,,,0.33,meteohub,2013-02-27 08:40:00,
2013-02-27 03:41:00,49.3,48.4,29.56,NE,40,8.0,20.0,97,0.00,,,0.33,meteohub,2013-02-27 08:41:00,
2013-02-27 03:42:00,49.1,48.2,29.56,East,83,13.0,20.0,97,0.00,,,0.33,meteohub,2013-02-27 08:42:00,
2013-02-27 03:45:00,48.6,47.5,29.56,NE,36,8.0,20.0,96,0.00,,,0.33,meteohub,2013-02-27 08:45:00,
2013-02-27 03:46:00,48.4,47.5,29.56,East,89,10.0,20.0,97,0.00,,,0.33,meteohub,2013-02-27 08:46:00,
2013-02-27 03:47:00,48.4,47.5,29.56,ENE,69,8.0,20.0,97,0.00,,,0.33,meteohub,2013-02-27 08:47:00,
2013-02-27 03:50:00,48.7,47.8,29.56,ENE,62,4.0,20.0,97,0.00,,,0.33,meteohub,2013-02-27 08:50:00,
2013-02-27 03:52:00,48.7,47.8,29.56,East,98,10.0,20.0,97,0.00,,,0.33,meteohub,2013-02-27 08:52:00,
2013-02-27 03:53:00,48.7,47.8,29.56,East,101,9.0,20.0,97,0.00,,,0.33,meteohub,2013-02-27 08:53:00,
2013-02-27 03:55:00,49.6,48.7,29.55,East,84,15.0,20.0,97,0.00,,,0.33,meteohub,2013-02-27 08:55:00,
2013-02-27 03:57:00,49.6,48.7,29.56,East,86,3.0,18.0,97,0.00,,,0.33,meteohub,2013-02-27 08:57:00,
2013-02-27 03:59:00,49.3,48.4,29.55,ENE,76,10.0,18.0,97,0.00,,,0.33,meteohub,2013-02-27 08:59:00,
2013-02-27 04:00:00,48.9,48.0,29.55,ENE,65,14.0,18.0,97,0.00,,,0.33,meteohub,2013-02-27 09:00:00,
2013-02-27 04:02:00,49.1,48.2,29.55,ESE,104,11.0,21.0,97,0.00,,,0.33,meteohub,2013-02-27 09:02:00,
2013-02-27 04:04:00,48.7,47.8,29.56,ENE,71,12.0,21.0,97,0.00,,,0.33,meteohub,2013-02-27 09:04:00,
2013-02-27 04:05:00,48.7,47.8,29.56,ENE,63,5.0,21.0,97,0.00,,,0.33,meteohub,2013-02-27 09:05:00,
2013-02-27 04:07:00,48.6,47.7,29.55,NE,53,7.0,21.0,97,0.00,,,0.33,meteohub,2013-02-27 09:07:00,
2013-02-27 04:09:00,48.6,47.7,29.55,ENE,60,5.0,21.0,97,0.00,,,0.33,meteohub,2013-02-27 09:09:00,
2013-02-27 04:10:00,48.4,47.5,29.55,ENE,78,8.0,19.0,97,0.01,,,0.34,meteohub,2013-02-27 09:10:00,
2013-02-27 04:12:00,48.0,47.1,29.55,East,101,6.0,19.0,97,0.01,,,0.34,meteohub,2013-02-27 09:12:00,
2013-02-27 04:13:00,48.0,46.9,29.55,SE,128,3.0,19.0,96,0.01,,,0.34,meteohub,2013-02-27 09:13:00,
2013-02-27 04:14:00,48.2,47.1,29.55,East,85,10.0,19.0,96,0.01,,,0.34,meteohub,2013-02-27 09:14:00,
2013-02-27 04:16:00,48.7,47.8,29.55,East,82,11.0,17.0,97,0.04,,,0.37,meteohub,2013-02-27 09:16:00,
2013-02-27 04:18:00,48.9,48.0,29.55,NE,53,5.0,17.0,97,0.04,,,0.37,meteohub,2013-02-27 09:18:00,
2013-02-27 04:19:00,48.7,47.8,29.55,East,92,5.0,17.0,97,0.04,,,0.37,meteohub,2013-02-27 09:19:00,
2013-02-27 04:21:00,48.2,47.3,29.55,ESE,111,7.0,17.0,97,0.05,,,0.38,meteohub,2013-02-27 09:21:00,
2013-02-27 04:23:00,48.2,47.3,29.54,East,101,11.0,17.0,97,0.05,,,0.38,meteohub,2013-02-27 09:23:00,
2013-02-27 04:24:00,48.7,47.8,29.55,ENE,68,10.0,17.0,97,0.05,,,0.38,meteohub,2013-02-27 09:24:00,
2013-02-27 04:27:00,48.9,48.0,29.55,NE,56,9.0,17.0,97,0.07,,,0.40,meteohub,2013-02-27 09:27:00,
2013-02-27 04:28:00,48.6,47.7,29.55,ENE,69,13.0,17.0,97,0.07,,,0.40,meteohub,2013-02-27 09:28:00,
2013-02-27 04:29:00,48.6,47.7,29.55,NE,55,11.0,17.0,97,0.07,,,0.40,meteohub,2013-02-27 09:29:00,
2013-02-27 04:32:00,48.6,47.7,29.55,NNE,22,8.0,17.0,97,0.07,,,0.40,meteohub,2013-02-27 09:32:00,
2013-02-27 04:33:00,48.2,47.3,29.55,NNE,27,3.0,17.0,97,0.07,,,0.40,meteohub,2013-02-27 09:33:00,
2013-02-27 04:35:00,48.0,46.9,29.55,NNE,23,7.0,17.0,96,0.07,,,0.41,meteohub,2013-02-27 09:35:00,
2013-02-27 04:37:00,47.8,46.9,29.55,NE,46,5.0,17.0,97,0.08,,,0.41,meteohub,2013-02-27 09:37:00,
2013-02-27 04:38:00,47.7,46.9,29.54,ENE,76,9.0,17.0,97,0.08,,,0.41,meteohub,2013-02-27 09:38:00,
2013-02-27 04:39:00,47.7,46.9,29.54,ENE,58,5.0,17.0,97,0.08,,,0.41,meteohub,2013-02-27 09:39:00,
2013-02-27 04:41:00,47.7,46.9,29.54,NE,38,10.0,15.0,97,0.08,,,0.41,meteohub,2013-02-27 09:41:00,
2013-02-27 04:42:00,47.7,46.9,29.54,ESE,109,8.0,15.0,97,0.08,,,0.41,meteohub,2013-02-27 09:42:00,
2013-02-27 04:44:00,48.0,47.1,29.54,NE,51,6.0,15.0,97,0.08,,,0.41,meteohub,2013-02-27 09:44:00,
2013-02-27 04:46:00,48.6,47.7,29.54,ENE,74,7.0,15.0,97,0.08,,,0.41,meteohub,2013-02-27 09:46:00,
2013-02-27 04:48:00,49.1,48.2,29.54,NE,53,6.0,15.0,97,0.08,,,0.41,meteohub,2013-02-27 09:48:00,
2013-02-27 04:49:00,49.5,48.9,29.54,ENE,60,3.0,15.0,98,0.08,,,0.41,meteohub,2013-02-27 09:49:00,
2013-02-27 04:51:00,49.6,48.7,29.54,East,80,15.0,15.0,97,0.08,,,0.41,meteohub,2013-02-27 09:51:00,
2013-02-27 04:53:00,50.2,49.6,29.53,SE,137,11.0,15.0,98,0.08,,,0.41,meteohub,2013-02-27 09:53:00,
2013-02-27 04:54:00,50.4,49.8,29.53,East,100,9.0,15.0,98,0.08,,,0.41,meteohub,2013-02-27 09:54:00,
2013-02-27 04:56:00,50.5,50.0,29.53,East,87,8.0,15.0,98,0.08,,,0.41,meteohub,2013-02-27 09:56:00,
2013-02-27 04:58:00,50.7,50.2,29.53,ENE,76,7.0,15.0,98,0.08,,,0.41,meteohub,2013-02-27 09:58:00,
2013-02-27 04:59:00,50.7,50.2,29.53,East,90,7.0,15.0,98,0.08,,,0.41,meteohub,2013-02-27 09:59:00,
2013-02-27 05:01:00,50.7,49.8,29.53,ENE,76,9.0,15.0,97,0.08,,,0.41,meteohub,2013-02-27 10:01:00,
2013-02-27 05:03:00,50.7,49.8,29.53,East,99,8.0,15.0,97,0.08,,,0.41,meteohub,2013-02-27 10:03:00,
2013-02-27 05:04:00,50.9,50.4,29.53,ESE,110,10.0,15.0,98,0.08,,,0.41,meteohub,2013-02-27 10:04:00,
2013-02-27 05:06:00,51.1,50.5,29.52,ESE,105,13.0,15.0,98,0.07,,,0.41,meteohub,2013-02-27 10:06:00,
2013-02-27 05:08:00,51.4,50.5,29.52,NE,51,5.0,19.0,97,0.07,,,0.41,meteohub,2013-02-27 10:08:00,
2013-02-27 05:09:00,51.3,50.4,29.52,East,100,13.0,19.0,97,0.07,,,0.41,meteohub,2013-02-27 10:09:00,
2013-02-27 05:10:00,51.3,50.4,29.52,ENE,71,8.0,19.0,97,0.07,,,0.41,meteohub,2013-02-27 10:10:00,
2013-02-27 05:11:00,51.3,50.4,29.52,ENE,78,14.0,19.0,97,0.06,,,0.41,meteohub,2013-02-27 10:11:00,
2013-02-27 05:14:00,51.4,50.5,29.52,ESE,103,12.0,19.0,97,0.06,,,0.41,meteohub,2013-02-27 10:14:00,
2013-02-27 05:15:00,51.6,51.1,29.52,East,86,15.0,19.0,98,0.06,,,0.41,meteohub,2013-02-27 10:15:00,
2013-02-27 05:18:00,51.6,50.7,29.52,East,79,11.0,23.0,97,0.03,,,0.41,meteohub,2013-02-27 10:18:00,
2013-02-27 05:19:00,51.3,50.4,29.52,East,92,8.0,23.0,97,0.03,,,0.41,meteohub,2013-02-27 10:19:00,
2013-02-27 05:20:00,51.3,50.4,29.52,East,90,7.0,23.0,97,0.03,,,0.41,meteohub,2013-02-27 10:20:00,
2013-02-27 05:23:00,50.5,49.6,29.52,ENE,73,2.0,23.0,97,0.02,,,0.41,meteohub,2013-02-27 10:23:00,
2013-02-27 05:25:00,50.4,49.3,29.52,ESE,104,4.0,23.0,96,0.02,,,0.41,meteohub,2013-02-27 10:25:00,
2013-02-27 05:28:00,50.4,49.5,29.52,ENE,66,3.0,23.0,97,0.01,,,0.41,meteohub,2013-02-27 10:28:00,
2013-02-27 05:30:00,50.0,49.1,29.52,ENE,66,1.0,23.0,97,0.01,,,0.41,meteohub,2013-02-27 10:30:00,
2013-02-27 05:31:00,49.8,48.9,29.52,ENE,66,1.0,23.0,97,0.01,,,0.41,meteohub,2013-02-27 10:31:00,
2013-02-27 05:34:00,49.6,48.7,29.52,East,86,0.0,15.0,97,0.00,,,0.41,meteohub,2013-02-27 10:34:00,
2013-02-27 05:35:00,49.6,48.7,29.52,SSE,158,3.0,15.0,97,0.00,,,0.41,meteohub,2013-02-27 10:35:00,
2013-02-27 05:36:00,49.6,48.7,29.52,SSW,192,1.0,15.0,97,0.00,,,0.41,meteohub,2013-02-27 10:36:00,
2013-02-27 05:39:00,49.3,48.2,29.52,South,169,1.0,8.0,96,0.00,,,0.41,meteohub,2013-02-27 10:39:00,
2013-02-27 05:40:00,49.1,48.0,29.52,East,98,0.0,8.0,96,0.00,,,0.41,meteohub,2013-02-27 10:40:00,
2013-02-27 05:41:00,49.1,48.0,29.52,SE,136,0.0,7.0,96,0.00,,,0.41,meteohub,2013-02-27 10:41:00,
2013-02-27 05:42:00,48.9,47.8,29.52,SE,136,0.0,7.0,96,0.00,,,0.41,meteohub,2013-02-27 10:42:00,
2013-02-27 05:44:00,48.9,48.0,29.52,ESE,106,4.0,7.0,97,0.00,,,0.41,meteohub,2013-02-27 10:44:00,
2013-02-27 05:46:00,49.1,48.2,29.52,East,92,2.0,7.0,97,0.00,,,0.41,meteohub,2013-02-27 10:46:00,
2013-02-27 05:47:00,49.1,48.2,29.52,East,87,3.0,7.0,97,0.00,,,0.41,meteohub,2013-02-27 10:47:00,
2013-02-27 05:49:00,49.1,48.2,29.52,ENE,78,3.0,7.0,97,0.00,,,0.41,meteohub,2013-02-27 10:49:00,
2013-02-27 05:51:00,48.7,47.8,29.52,ESE,104,1.0,7.0,97,0.00,,,0.41,meteohub,2013-02-27 10:51:00,
2013-02-27 05:52:00,48.7,47.8,29.52,ESE,104,1.0,7.0,97,0.00,,,0.41,meteohub,2013-02-27 10:52:00,
2013-02-27 05:54:00,48.6,47.5,29.52,ENE,69,2.0,7.0,96,0.00,,,0.41,meteohub,2013-02-27 10:54:00,
2013-02-27 05:56:00,48.4,47.3,29.52,East,80,1.0,7.0,96,0.00,,,0.41,meteohub,2013-02-27 10:56:00,
2013-02-27 05:57:00,48.0,46.9,29.52,East,96,2.0,7.0,96,0.00,,,0.41,meteohub,2013-02-27 10:57:00,
2013-02-27 05:58:00,48.0,46.9,29.52,East,95,2.0,7.0,96,0.00,,,0.41,meteohub,2013-02-27 10:58:00,
2013-02-27 05:59:00,47.7,46.6,29.52,East,90,2.0,7.0,96,0.00,,,0.41,meteohub,2013-02-27 10:59:00,
2013-02-27 06:01:00,47.1,46.0,29.51,East,80,3.0,7.0,96,0.00,,,0.41,meteohub,2013-02-27 11:01:00,
2013-02-27 06:03:00,46.9,45.9,29.51,East,88,2.0,7.0,96,0.00,,,0.41,meteohub,2013-02-27 11:03:00,
2013-02-27 06:06:00,46.9,45.9,29.51,East,96,3.0,5.0,96,0.00,,,0.41,meteohub,2013-02-27 11:06:00,
2013-02-27 06:07:00,46.9,46.2,29.51,ENE,77,4.0,5.0,97,0.00,,,0.41,meteohub,2013-02-27 11:07:00,
2013-02-27 06:08:00,47.1,46.4,29.51,East,86,6.0,6.0,97,0.00,,,0.41,meteohub,2013-02-27 11:08:00,
2013-02-27 06:11:00,47.5,46.8,29.51,ENE,69,4.0,8.0,97,0.00,,,0.41,meteohub,2013-02-27 11:11:00,
2013-02-27 06:12:00,47.7,46.9,29.51,ENE,72,4.0,8.0,97,0.00,,,0.41,meteohub,2013-02-27 11:12:00,
2013-02-27 06:13:00,47.8,46.9,29.51,East,86,3.0,8.0,97,0.00,,,0.41,meteohub,2013-02-27 11:13:00,
2013-02-27 06:14:00,47.8,46.9,29.51,ENE,69,5.0,8.0,97,0.00,,,0.41,meteohub,2013-02-27 11:14:00,
2013-02-27 06:16:00,47.8,46.9,29.51,ENE,75,3.0,8.0,97,0.00,,,0.41,meteohub,2013-02-27 11:16:00,
2013-02-27 06:17:00,47.8,46.9,29.51,ENE,76,5.0,12.0,97,0.00,,,0.41,meteohub,2013-02-27 11:17:00,
2013-02-27 06:18:00,47.8,46.9,29.51,ENE,74,7.0,12.0,97,0.00,,,0.41,meteohub,2013-02-27 11:18:00,
2013-02-27 06:19:00,47.8,46.9,29.51,ENE,65,7.0,12.0,97,0.00,,,0.41,meteohub,2013-02-27 11:19:00,
2013-02-27 06:21:00,47.8,46.9,29.51,ESE,112,5.0,12.0,97,0.00,,,0.41,meteohub,2013-02-27 11:21:00,
2013-02-27 06:23:00,47.7,46.9,29.51,ENE,76,4.0,12.0,97,0.00,,,0.41,meteohub,2013-02-27 11:23:00,
2013-02-27 06:24:00,47.5,46.8,29.51,East,83,2.0,12.0,97,0.00,,,0.41,meteohub,2013-02-27 11:24:00,
2013-02-27 06:26:00,47.3,46.6,29.51,East,85,5.0,12.0,97,0.00,,,0.41,meteohub,2013-02-27 11:26:00,
2013-02-27 06:29:00,47.5,46.8,29.50,East,80,5.0,12.0,97,0.00,,,0.41,meteohub,2013-02-27 11:29:00,
2013-02-27 06:30:00,47.5,46.8,29.50,East,94,6.0,12.0,97,0.00,,,0.41,meteohub,2013-02-27 11:30:00,
2013-02-27 06:31:00,47.3,46.6,29.50,ENE,71,4.0,9.0,97,0.00,,,0.41,meteohub,2013-02-27 11:31:00,
2013-02-27 06:34:00,46.9,46.2,29.50,ENE,73,2.0,9.0,97,0.00,,,0.41,meteohub,2013-02-27 11:34:00,
2013-02-27 06:35:00,46.9,46.2,29.50,ESE,105,5.0,9.0,97,0.00,,,0.41,meteohub,2013-02-27 11:35:00,
2013-02-27 06:36:00,46.8,46.0,29.50,ENE,59,2.0,9.0,97,0.00,,,0.41,meteohub,2013-02-27 11:36:00,
2013-02-27 06:39:00,46.8,46.0,29.50,ENE,72,3.0,9.0,97,0.00,,,0.41,meteohub,2013-02-27 11:39:00,
2013-02-27 06:41:00,46.6,45.9,29.50,ENE,72,2.0,9.0,97,0.00,,,0.41,meteohub,2013-02-27 11:41:00,
2013-02-27 06:42:00,46.6,45.9,29.50,ENE,61,2.0,9.0,97,0.00,,,0.41,meteohub,2013-02-27 11:42:00,
2013-02-27 06:44:00,46.6,45.9,29.50,ENE,73,1.0,9.0,97,0.00,,,0.41,meteohub,2013-02-27 11:44:00,
2013-02-27 06:46:00,46.4,45.7,29.49,NE,37,4.0,8.0,97,0.00,,,0.41,meteohub,2013-02-27 11:46:00,
2013-02-27 06:47:00,46.4,45.7,29.49,NE,36,5.0,8.0,97,0.00,,,0.41,meteohub,2013-02-27 11:47:00,
2013-02-27 06:49:00,46.4,45.7,29.49,NE,51,3.0,8.0,97,0.00,,,0.41,meteohub,2013-02-27 11:49:00,
2013-02-27 06:50:00,46.2,45.5,29.49,ENE,63,4.0,8.0,97,0.00,,,0.41,meteohub,2013-02-27 11:50:00,
2013-02-27 06:51:00,46.2,45.5,29.49,ENE,74,4.0,7.0,97,0.00,,,0.41,meteohub,2013-02-27 11:51:00,
2013-02-27 06:52:00,46.2,45.5,29.49,ENE,61,2.0,7.0,97,0.00,,,0.41,meteohub,2013-02-27 11:52:00,
2013-02-27 06:55:00,46.0,45.3,29.49,NNE,30,3.0,7.0,97,0.00,,,0.41,meteohub,2013-02-27 11:55:00,
2013-02-27 06:56:00,45.9,45.1,29.49,ENE,71,0.0,7.0,97,0.00,,,0.41,meteohub,2013-02-27 11:56:00,
2013-02-27 06:57:00,45.9,45.1,29.49,East,92,1.0,7.0,97,0.00,,,0.41,meteohub,2013-02-27 11:57:00,
2013-02-27 07:00:00,45.7,45.0,29.49,East,94,3.0,7.0,97,0.00,,,0.41,meteohub,2013-02-27 12:00:00,
2013-02-27 07:01:00,45.7,45.0,29.49,ENE,62,2.0,7.0,97,0.00,,,0.41,meteohub,2013-02-27 12:01:00,
2013-02-27 07:02:00,45.9,45.1,29.49,ENE,71,2.0,7.0,97,0.00,,,0.41,meteohub,2013-02-27 12:02:00,
2013-02-27 07:05:00,45.9,45.1,29.49,ENE,68,3.0,7.0,97,0.00,,,0.41,meteohub,2013-02-27 12:05:00,
2013-02-27 07:06:00,45.9,45.1,29.49,ESE,103,2.0,6.0,97,0.00,,,0.41,meteohub,2013-02-27 12:06:00,
2013-02-27 07:07:00,46.0,45.3,29.49,ENE,73,1.0,6.0,97,0.00,,,0.41,meteohub,2013-02-27 12:07:00,
2013-02-27 07:08:00,45.9,45.1,29.49,ENE,76,2.0,6.0,97,0.00,,,0.41,meteohub,2013-02-27 12:08:00,
2013-02-27 07:10:00,46.0,45.3,29.49,ENE,61,2.0,6.0,97,0.00,,,0.41,meteohub,2013-02-27 12:10:00,
2013-02-27 07:11:00,46.0,45.3,29.49,East,84,2.0,6.0,97,0.00,,,0.41,meteohub,2013-02-27 12:11:00,
2013-02-27 07:12:00,46.0,45.3,29.49,East,84,1.0,6.0,97,0.00,,,0.41,meteohub,2013-02-27 12:12:00,
2013-02-27 07:13:00,45.9,45.1,29.49,East,86,1.0,6.0,97,0.00,,,0.41,meteohub,2013-02-27 12:13:00,
2013-02-27 07:16:00,46.0,45.3,29.49,NE,46,0.0,6.0,97,0.00,,,0.41,meteohub,2013-02-27 12:16:00,
2013-02-27 07:17:00,46.0,45.3,29.49,NE,46,2.0,6.0,97,0.00,,,0.41,meteohub,2013-02-27 12:17:00,
2013-02-27 07:18:00,45.9,45.1,29.49,ENE,71,2.0,6.0,97,0.00,,,0.41,meteohub,2013-02-27 12:18:00,
2013-02-27 07:21:00,45.9,45.1,29.49,ENE,61,3.0,4.0,97,0.00,,,0.41,meteohub,2013-02-27 12:21:00,
2013-02-27 07:22:00,45.9,45.1,29.49,ENE,59,2.0,4.0,97,0.00,,,0.41,meteohub,2013-02-27 12:22:00,
2013-02-27 07:23:00,45.9,45.1,29.49,NE,38,3.0,4.0,97,0.00,,,0.41,meteohub,2013-02-27 12:23:00,
2013-02-27 07:27:00,45.9,45.1,29.49,NE,50,4.0,5.0,97,0.00,,,0.41,meteohub,2013-02-27 12:27:00,
2013-02-27 07:28:00,45.9,45.1,29.49,East,82,3.0,5.0,97,0.00,,,0.41,meteohub,2013-02-27 12:28:00,
2013-02-27 07:32:00,46.0,45.3,29.49,NE,50,2.0,5.0,97,0.00,,,0.41,meteohub,2013-02-27 12:32:00,
2013-02-27 07:33:00,46.0,45.3,29.49,ENE,59,2.0,5.0,97,0.00,,,0.41,meteohub,2013-02-27 12:33:00,
2013-02-27 07:35:00,45.9,45.1,29.49,NE,46,4.0,5.0,97,0.00,,,0.41,meteohub,2013-02-27 12:35:00,
2013-02-27 07:37:00,45.7,45.0,29.49,ENE,59,1.0,5.0,97,0.00,,,0.41,meteohub,2013-02-27 12:37:00,
2013-02-27 07:38:00,45.7,45.0,29.49,ENE,74,2.0,5.0,97,0.00,,,0.41,meteohub,2013-02-27 12:38:00,
2013-02-27 07:40:00,45.7,45.0,29.49,ENE,61,2.0,5.0,97,0.00,,,0.41,meteohub,2013-02-27 12:40:00,
2013-02-27 07:43:00,45.7,45.0,29.49,ENE,65,3.0,5.0,97,0.00,,,0.41,meteohub,2013-02-27 12:43:00,
2013-02-27 07:45:00,45.5,44.8,29.49,ENE,61,1.0,5.0,97,0.00,,,0.41,meteohub,2013-02-27 12:45:00,
2013-02-27 07:48:00,45.3,44.6,29.49,ENE,74,3.0,5.0,97,0.00,,,0.41,meteohub,2013-02-27 12:48:00,
2013-02-27 07:49:00,45.1,44.4,29.49,East,96,0.0,5.0,97,0.00,,,0.41,meteohub,2013-02-27 12:49:00,
2013-02-27 07:50:00,45.1,44.4,29.49,East,97,0.0,5.0,97,0.00,,,0.41,meteohub,2013-02-27 12:50:00,
2013-02-27 07:53:00,45.0,44.2,29.49,East,90,0.0,5.0,97,0.00,,,0.41,meteohub,2013-02-27 12:53:00,
2013-02-27 07:54:00,45.0,44.2,29.49,East,90,0.0,5.0,97,0.00,,,0.41,meteohub,2013-02-27 12:54:00,
2013-02-27 07:55:00,44.8,44.1,29.49,East,90,1.0,5.0,97,0.00,,,0.41,meteohub,2013-02-27 12:55:00,
2013-02-27 07:58:00,44.8,44.1,29.49,ESE,104,2.0,3.0,97,0.00,,,0.41,meteohub,2013-02-27 12:58:00,
2013-02-27 07:59:00,44.8,44.1,29.49,East,94,1.0,3.0,97,0.00,,,0.41,meteohub,2013-02-27 12:59:00,
2013-02-27 08:00:00,44.8,44.1,29.49,East,96,2.0,3.0,97,0.00,,,0.41,meteohub,2013-02-27 13:00:00,
2013-02-27 08:04:00,45.0,44.2,29.49,East,90,2.0,3.0,97,0.00,,,0.41,meteohub,2013-02-27 13:04:00,
2013-02-27 08:05:00,45.0,44.2,29.49,East,80,0.0,3.0,97,0.00,,,0.41,meteohub,2013-02-27 13:05:00,
2013-02-27 08:09:00,45.0,44.2,29.49,ESE,111,0.0,3.0,97,0.00,,,0.41,meteohub,2013-02-27 13:09:00,
2013-02-27 08:10:00,45.1,44.4,29.49,SSE,159,1.0,3.0,97,0.00,,,0.41,meteohub,2013-02-27 13:10:00,
2013-02-27 08:14:00,45.1,44.4,29.50,SSW,194,3.0,5.0,97,0.00,,,0.41,meteohub,2013-02-27 13:14:00,
2013-02-27 08:15:00,45.1,44.4,29.50,SSW,201,3.0,5.0,97,0.00,,,0.41,meteohub,2013-02-27 13:15:00,
2013-02-27 08:19:00,45.5,44.8,29.51,SSW,204,2.0,5.0,97,0.00,,,0.41,meteohub,2013-02-27 13:19:00,
2013-02-27 08:21:00,45.7,45.0,29.51,SSW,202,4.0,5.0,97,0.00,,,0.41,meteohub,2013-02-27 13:21:00,
2013-02-27 08:25:00,45.9,45.3,29.51,SSW,206,5.0,5.0,98,0.00,,,0.41,meteohub,2013-02-27 13:25:00,
2013-02-27 08:26:00,46.0,45.3,29.51,SSW,202,3.0,7.0,97,0.00,,,0.41,meteohub,2013-02-27 13:26:00,
2013-02-27 08:29:00,46.0,45.3,29.51,SSW,204,4.0,7.0,97,0.00,,,0.41,meteohub,2013-02-27 13:29:00,
2013-02-27 08:30:00,46.0,45.3,29.51,SW,215,5.0,7.0,97,0.00,,,0.41,meteohub,2013-02-27 13:30:00,
2013-02-27 08:32:00,46.0,45.3,29.52,WSW,244,7.0,7.0,97,0.00,,,0.41,meteohub,2013-02-27 13:32:00,
2013-02-27 08:35:00,45.9,45.1,29.51,SW,228,4.0,7.0,97,0.00,,,0.41,meteohub,2013-02-27 13:35:00,
2013-02-27 08:36:00,45.9,45.1,29.51,NW,318,5.0,13.0,97,0.00,,,0.41,meteohub,2013-02-27 13:36:00,
2013-02-27 08:37:00,45.9,45.1,29.51,SSW,202,6.0,13.0,97,0.00,,,0.41,meteohub,2013-02-27 13:37:00,
2013-02-27 08:41:00,46.2,45.5,29.50,South,188,6.0,13.0,97,0.00,,,0.41,meteohub,2013-02-27 13:41:00,
2013-02-27 08:42:00,46.0,45.3,29.50,South,185,5.0,13.0,97,0.00,,,0.41,meteohub,2013-02-27 13:42:00,
2013-02-27 08:46:00,45.3,44.6,29.51,South,186,7.0,13.0,97,0.00,,,0.41,meteohub,2013-02-27 13:46:00,
2013-02-27 08:47:00,45.1,44.4,29.51,SW,220,7.0,13.0,97,0.00,,,0.41,meteohub,2013-02-27 13:47:00,
2013-02-27 08:48:00,45.0,43.9,29.51,SW,222,4.0,13.0,96,0.00,,,0.41,meteohub,2013-02-27 13:48:00,
2013-02-27 08:52:00,44.4,43.3,29.51,SW,219,3.0,9.0,96,0.00,,,0.41,meteohub,2013-02-27 13:52:00,
2013-02-27 08:54:00,44.4,43.7,29.51,SW,225,2.0,9.0,97,0.00,,,0.41,meteohub,2013-02-27 13:54:00,
2013-02-27 08:57:00,44.8,44.1,29.51,SW,217,3.0,9.0,97,0.00,,,0.41,meteohub,2013-02-27 13:57:00,
2013-02-27 08:58:00,44.8,44.1,29.51,SSW,198,4.0,9.0,97,0.00,,,0.41,meteohub,2013-02-27 13:58:00,
2013-02-27 09:00:00,44.8,44.1,29.51,SW,225,3.0,9.0,97,0.00,,,0.41,meteohub,2013-02-27 14:00:00,
2013-02-27 09:02:00,45.0,44.2,29.51,SW,217,1.0,9.0,97,0.00,,,0.41,meteohub,2013-02-27 14:02:00,
2013-02-27 09:03:00,45.1,44.4,29.51,SW,217,1.0,9.0,97,0.00,,,0.41,meteohub,2013-02-27 14:03:00,
2013-02-27 09:06:00,45.3,44.6,29.51,SSW,207,2.0,9.0,97,0.00,,,0.41,meteohub,2013-02-27 14:06:00,
2013-02-27 09:08:00,45.1,44.4,29.51,South,190,7.0,9.0,97,0.00,,,0.41,meteohub,2013-02-27 14:08:00,
2013-02-27 09:12:00,44.6,43.9,29.52,SSW,211,6.0,9.0,97,0.00,,,0.41,meteohub,2013-02-27 14:12:00,
2013-02-27 09:13:00,44.4,43.7,29.52,South,190,6.0,9.0,97,0.00,,,0.41,meteohub,2013-02-27 14:13:00,
2013-02-27 09:14:00,44.4,43.7,29.52,South,191,8.0,9.0,97,0.00,,,0.41,meteohub,2013-02-27 14:14:00,
2013-02-27 09:17:00,44.6,43.9,29.52,South,189,4.0,14.0,97,0.00,,,0.41,meteohub,2013-02-27 14:17:00,
2013-02-27 09:18:00,44.8,44.1,29.52,SSW,202,4.0,14.0,97,0.00,,,0.41,meteohub,2013-02-27 14:18:00,
2013-02-27 09:19:00,44.8,44.1,29.52,WSW,245,6.0,14.0,97,0.00,,,0.41,meteohub,2013-02-27 14:19:00,
2013-02-27 09:22:00,45.3,44.6,29.52,SSW,202,8.0,14.0,97,0.00,,,0.41,meteohub,2013-02-27 14:22:00,
2013-02-27 09:23:00,45.7,45.0,29.52,SSW,209,4.0,14.0,97,0.00,,,0.41,meteohub,2013-02-27 14:23:00,
2013-02-27 09:24:00,45.9,45.3,29.52,SSW,199,7.0,14.0,98,0.00,,,0.41,meteohub,2013-02-27 14:24:00,
2013-02-27 09:27:00,47.5,46.9,29.52,WSW,243,7.0,10.0,98,0.00,,,0.41,meteohub,2013-02-27 14:27:00,
2013-02-27 09:29:00,47.7,47.1,29.52,SSW,208,7.0,10.0,98,0.00,,,0.41,meteohub,2013-02-27 14:29:00,
2013-02-27 09:32:00,47.8,47.3,29.52,WSW,241,3.0,13.0,98,0.00,,,0.41,meteohub,2013-02-27 14:32:00,
2013-02-27 09:34:00,47.8,47.3,29.52,SSW,211,6.0,13.0,98,0.00,,,0.41,meteohub,2013-02-27 14:34:00,
2013-02-27 09:35:00,47.8,47.3,29.52,WSW,249,12.0,13.0,98,0.00,,,0.41,meteohub,2013-02-27 14:35:00,
2013-02-27 09:38:00,47.8,47.3,29.52,SSW,201,6.0,13.0,98,0.00,,,0.41,meteohub,2013-02-27 14:38:00,
2013-02-27 09:39:00,47.8,47.3,29.52,SW,223,7.0,13.0,98,0.00,,,0.41,meteohub,2013-02-27 14:39:00,
2013-02-27 09:40:00,47.8,47.3,29.52,SW,225,10.0,13.0,98,0.00,,,0.41,meteohub,2013-02-27 14:40:00,
2013-02-27 09:43:00,48.0,47.5,29.52,WSW,248,8.0,15.0,98,0.00,,,0.41,meteohub,2013-02-27 14:43:00,
2013-02-27 09:45:00,48.0,47.5,29.52,SW,217,9.0,15.0,98,0.00,,,0.41,meteohub,2013-02-27 14:45:00,
2013-02-27 09:49:00,47.8,46.9,29.52,SW,235,13.0,15.0,97,0.00,,,0.41,meteohub,2013-02-27 14:49:00,
2013-02-27 09:50:00,47.8,46.9,29.52,SW,226,10.0,15.0,97,0.00,,,0.41,meteohub,2013-02-27 14:50:00,
2013-02-27 09:52:00,47.8,46.9,29.52,SW,222,8.0,15.0,97,0.00,,,0.41,meteohub,2013-02-27 14:52:00,
2013-02-27 09:55:00,47.7,46.9,29.52,SW,221,9.0,15.0,97,0.00,,,0.41,meteohub,2013-02-27 14:55:00,
2013-02-27 09:57:00,47.8,46.9,29.52,SSW,212,7.0,16.0,97,0.00,,,0.41,meteohub,2013-02-27 14:57:00,
2013-02-27 10:00:00,48.0,47.1,29.52,SSW,202,5.0,16.0,97,0.00,,,0.41,meteohub,2013-02-27 15:00:00,
2013-02-27 10:01:00,48.4,47.5,29.52,SSW,207,8.0,16.0,97,0.00,,,0.41,meteohub,2013-02-27 15:01:00,
2013-02-27 10:03:00,48.7,48.2,29.52,SW,223,2.0,16.0,98,0.00,,,0.41,meteohub,2013-02-27 15:03:00,
2013-02-27 10:05:00,48.7,47.8,29.52,SSW,204,5.0,16.0,97,0.00,,,0.41,meteohub,2013-02-27 15:05:00,
2013-02-27 10:06:00,48.4,47.5,29.52,SSW,209,7.0,14.0,97,0.00,,,0.41,meteohub,2013-02-27 15:06:00,
2013-02-27 10:07:00,48.0,47.1,29.52,SW,217,6.0,14.0,97,0.00,,,0.41,meteohub,2013-02-27 15:07:00,
2013-02-27 10:08:00,47.7,46.6,29.52,SSW,195,4.0,14.0,96,0.00,,,0.41,meteohub,2013-02-27 15:08:00,
2013-02-27 10:10:00,47.3,46.2,29.52,South,188,2.0,12.0,96,0.00,,,0.41,meteohub,2013-02-27 15:10:00,
2013-02-27 10:12:00,47.1,46.0,29.52,WSW,240,6.0,12.0,96,0.00,,,0.41,meteohub,2013-02-27 15:12:00,
2013-02-27 10:13:00,47.3,46.6,29.52,WSW,237,8.0,12.0,97,0.00,,,0.41,meteohub,2013-02-27 15:13:00,
2013-02-27 10:15:00,48.6,47.7,29.52,SSW,212,5.0,15.0,97,0.00,,,0.41,meteohub,2013-02-27 15:15:00,
2013-02-27 10:17:00,49.3,48.7,29.52,WSW,254,7.0,15.0,98,0.00,,,0.41,meteohub,2013-02-27 15:17:00,
2013-02-27 10:18:00,49.5,48.9,29.52,SSW,209,7.0,15.0,98,0.00,,,0.41,meteohub,2013-02-27 15:18:00,
2013-02-27 10:20:00,49.6,49.1,29.52,West,261,3.0,15.0,98,0.00,,,0.41,meteohub,2013-02-27 15:20:00,
2013-02-27 10:22:00,49.3,48.7,29.52,South,188,6.0,15.0,98,0.00,,,0.41,meteohub,2013-02-27 15:22:00,
2013-02-27 10:23:00,48.7,47.8,29.52,South,191,5.0,15.0,97,0.00,,,0.41,meteohub,2013-02-27 15:23:00,
2013-02-27 10:26:00,47.1,45.7,29.52,SSW,192,5.0,15.0,95,0.00,,,0.41,meteohub,2013-02-27 15:26:00,
2013-02-27 10:27:00,46.6,45.1,29.52,SW,232,4.0,15.0,95,0.00,,,0.41,meteohub,2013-02-27 15:27:00,
2013-02-27 10:28:00,46.2,44.8,29.52,SSW,201,4.0,15.0,95,0.00,,,0.41,meteohub,2013-02-27 15:28:00,
2013-02-27 10:29:00,46.0,45.0,29.52,SSW,209,4.0,15.0,96,0.00,,,0.41,meteohub,2013-02-27 15:29:00,
2013-02-27 10:32:00,45.9,44.8,29.52,South,180,7.0,12.0,96,0.00,,,0.41,meteohub,2013-02-27 15:32:00,
2013-02-27 10:33:00,45.7,44.6,29.52,SSW,209,4.0,12.0,96,0.00,,,0.41,meteohub,2013-02-27 15:33:00,
2013-02-27 10:34:00,45.5,44.4,29.52,SW,221,5.0,12.0,96,0.00,,,0.41,meteohub,2013-02-27 15:34:00,
2013-02-27 10:35:00,45.3,44.2,29.52,SSW,194,3.0,12.0,96,0.00,,,0.41,meteohub,2013-02-27 15:35:00,
2013-02-27 10:38:00,45.1,44.1,29.52,SW,224,3.0,10.0,96,0.00,,,0.41,meteohub,2013-02-27 15:38:00,
2013-02-27 10:39:00,45.0,43.9,29.52,SSW,211,3.0,10.0,96,0.00,,,0.41,meteohub,2013-02-27 15:39:00,
2013-02-27 10:40:00,45.0,43.9,29.52,SSW,196,4.0,10.0,96,0.00,,,0.41,meteohub,2013-02-27 15:40:00,
2013-02-27 10:43:00,45.0,43.9,29.52,SSW,204,4.0,9.0,96,0.00,,,0.41,meteohub,2013-02-27 15:43:00,
2013-02-27 10:44:00,45.1,44.4,29.52,SW,228,4.0,9.0,97,0.00,,,0.41,meteohub,2013-02-27 15:44:00,
2013-02-27 10:45:00,45.3,44.6,29.52,South,175,4.0,9.0,97,0.00,,,0.41,meteohub,2013-02-27 15:45:00,
2013-02-27 10:48:00,45.3,44.6,29.52,SSW,202,4.0,9.0,97,0.00,,,0.41,meteohub,2013-02-27 15:48:00,
2013-02-27 10:50:00,45.5,44.8,29.52,SSW,196,4.0,9.0,97,0.00,,,0.41,meteohub,2013-02-27 15:50:00,
2013-02-27 10:51:00,45.7,45.0,29.52,WSW,240,4.0,12.0,97,0.00,,,0.41,meteohub,2013-02-27 15:51:00,
2013-02-27 10:53:00,45.7,45.0,29.52,South,186,4.0,12.0,97,0.00,,,0.41,meteohub,2013-02-27 15:53:00,
2013-02-27 10:55:00,45.5,44.4,29.52,SSW,194,6.0,12.0,96,0.00,,,0.41,meteohub,2013-02-27 15:55:00,
2013-02-27 10:56:00,45.5,44.4,29.52,SSW,205,3.0,12.0,96,0.00,,,0.41,meteohub,2013-02-27 15:56:00,
2013-02-27 10:58:00,45.9,45.1,29.52,South,178,3.0,12.0,97,0.00,,,0.41,meteohub,2013-02-27 15:58:00,
2013-02-27 11:00:00,46.0,45.3,29.52,SSW,198,7.0,12.0,97,0.00,,,0.41,meteohub,2013-02-27 16:00:00,
2013-02-27 11:01:00,46.0,45.3,29.52,SW,220,4.0,12.0,97,0.00,,,0.41,meteohub,2013-02-27 16:01:00,
2013-02-27 11:03:00,46.6,45.9,29.52,SSW,211,7.0,12.0,97,0.00,,,0.41,meteohub,2013-02-27 16:03:00,
2013-02-27 11:05:00,47.5,46.8,29.52,WSW,256,14.0,14.0,97,0.00,,,0.41,meteohub,2013-02-27 16:05:00,
2013-02-27 11:06:00,48.0,47.1,29.52,SW,226,6.0,11.0,97,0.00,,,0.41,meteohub,2013-02-27 16:06:00,
2013-02-27 11:07:00,48.0,47.5,29.52,SW,225,9.0,11.0,98,0.00,,,0.41,meteohub,2013-02-27 16:07:00,
2013-02-27 11:09:00,48.6,47.7,29.53,WSW,256,10.0,11.0,97,0.00,,,0.41,meteohub,2013-02-27 16:09:00,
2013-02-27 11:10:00,48.6,48.0,29.53,SW,215,10.0,11.0,98,0.00,,,0.41,meteohub,2013-02-27 16:10:00,
2013-02-27 11:11:00,48.6,47.7,29.53,WSW,258,11.0,17.0,97,0.00,,,0.41,meteohub,2013-02-27 16:11:00,
2013-02-27 11:12:00,48.6,47.7,29.53,SW,226,7.0,17.0,97,0.00,,,0.41,meteohub,2013-02-27 16:12:00,
2013-02-27 11:15:00,48.6,47.5,29.53,SW,233,6.0,17.0,96,0.00,,,0.41,meteohub,2013-02-27 16:15:00,
2013-02-27 11:16:00,48.4,47.3,29.53,WSW,248,11.0,17.0,96,0.00,,,0.41,meteohub,2013-02-27 16:16:00,
2013-02-27 11:18:00,48.4,46.9,29.53,SW,227,12.0,17.0,95,0.00,,,0.41,meteohub,2013-02-27 16:18:00,
2013-02-27 11:20:00,48.2,46.8,29.54,SW,236,5.0,17.0,95,0.00,,,0.41,meteohub,2013-02-27 16:20:00,
2013-02-27 11:22:00,48.0,46.6,29.54,SSW,213,7.0,17.0,95,0.00,,,0.41,meteohub,2013-02-27 16:22:00,
2013-02-27 11:23:00,48.0,46.6,29.54,SW,225,9.0,17.0,95,0.00,,,0.41,meteohub,2013-02-27 16:23:00,
2013-02-27 11:25:00,48.0,46.6,29.54,SSW,202,7.0,17.0,95,0.00,,,0.41,meteohub,2013-02-27 16:25:00,
2013-02-27 11:27:00,48.0,46.6,29.54,SW,227,12.0,16.0,95,0.00,,,0.41,meteohub,2013-02-27 16:27:00,
2013-02-27 11:29:00,47.8,46.4,29.54,WSW,244,9.0,16.0,95,0.00,,,0.41,meteohub,2013-02-27 16:29:00,
2013-02-27 11:30:00,47.8,46.4,29.54,SSW,205,10.0,16.0,95,0.00,,,0.41,meteohub,2013-02-27 16:30:00,
2013-02-27 11:31:00,47.8,46.4,29.54,SSW,198,7.0,16.0,95,0.00,,,0.41,meteohub,2013-02-27 16:31:00,
2013-02-27 11:32:00,47.8,46.4,29.54,West,265,10.0,16.0,95,0.00,,,0.41,meteohub,2013-02-27 16:32:00,
2013-02-27 11:34:00,47.8,46.4,29.53,WSW,248,10.0,16.0,95,0.00,,,0.41,meteohub,2013-02-27 16:34:00,
2013-02-27 11:35:00,48.0,46.6,29.54,WSW,240,9.0,16.0,95,0.00,,,0.41,meteohub,2013-02-27 16:35:00,
2013-02-27 11:36:00,48.0,46.6,29.54,WSW,246,6.0,16.0,95,0.00,,,0.41,meteohub,2013-02-27 16:36:00,
2013-02-27 11:37:00,48.0,46.6,29.53,SSW,209,7.0,16.0,95,0.00,,,0.41,meteohub,2013-02-27 16:37:00,
2013-02-27 11:40:00,48.0,46.4,29.53,WSW,248,8.0,16.0,94,0.00,,,0.41,meteohub,2013-02-27 16:40:00,
2013-02-27 11:41:00,48.0,46.4,29.53,WSW,242,4.0,16.0,94,0.00,,,0.41,meteohub,2013-02-27 16:41:00,
2013-02-27 11:42:00,47.8,46.2,29.53,SW,219,6.0,16.0,94,0.00,,,0.41,meteohub,2013-02-27 16:42:00,
2013-02-27 11:45:00,47.8,46.2,29.53,WSW,245,8.0,14.0,94,0.00,,,0.41,meteohub,2013-02-27 16:45:00,
2013-02-27 11:46:00,47.8,46.2,29.53,SW,219,11.0,14.0,94,0.00,,,0.41,meteohub,2013-02-27 16:46:00,
2013-02-27 11:48:00,47.8,46.2,29.53,SW,228,9.0,14.0,94,0.00,,,0.41,meteohub,2013-02-27 16:48:00,
2013-02-27 11:51:00,47.8,46.2,29.53,WSW,257,9.0,14.0,94,0.00,,,0.41,meteohub,2013-02-27 16:51:00,
2013-02-27 11:53:00,47.7,46.0,29.53,SW,229,8.0,14.0,94,0.00,,,0.41,meteohub,2013-02-27 16:53:00,
2013-02-27 11:56:00,47.5,45.5,29.53,SW,232,6.0,14.0,93,0.00,,,0.41,meteohub,2013-02-27 16:56:00,
2013-02-27 11:57:00,47.5,45.9,29.53,SW,215,8.0,14.0,94,0.00,,,0.41,meteohub,2013-02-27 16:57:00,
2013-02-27 11:58:00,47.7,46.0,29.53,WSW,248,4.0,14.0,94,0.00,,,0.41,meteohub,2013-02-27 16:58:00,
2013-02-27 12:01:00,48.0,46.4,29.53,SW,229,8.0,12.0,94,0.00,,,0.41,meteohub,2013-02-27 17:01:00,
2013-02-27 12:02:00,48.2,46.6,29.53,WSW,243,11.0,12.0,94,0.00,,,0.41,meteohub,2013-02-27 17:02:00,
2013-02-27 12:03:00,48.2,46.6,29.53,WSW,256,10.0,12.0,94,0.00,,,0.41,meteohub,2013-02-27 17:03:00,
2013-02-27 12:07:00,48.4,46.8,29.53,WSW,252,7.0,15.0,94,0.00,,,0.41,meteohub,2013-02-27 17:07:00,
2013-02-27 12:08:00,48.4,46.4,29.53,WSW,244,9.0,15.0,93,0.00,,,0.41,meteohub,2013-02-27 17:08:00,
2013-02-27 12:12:00,48.4,46.4,29.53,WSW,243,9.0,15.0,93,0.00,,,0.41,meteohub,2013-02-27 17:12:00,
2013-02-27 12:13:00,48.4,46.4,29.53,SW,219,5.0,15.0,93,0.00,,,0.41,meteohub,2013-02-27 17:13:00,
2013-02-27 12:14:00,48.4,46.4,29.53,WSW,240,10.0,15.0,93,0.00,,,0.41,meteohub,2013-02-27 17:14:00,
2013-02-27 12:17:00,48.6,46.6,29.53,SW,217,14.0,16.0,93,0.00,,,0.41,meteohub,2013-02-27 17:17:00,
2013-02-27 12:19:00,48.6,46.4,29.53,WSW,258,9.0,16.0,92,0.00,,,0.41,meteohub,2013-02-27 17:19:00,
2013-02-27 12:22:00,48.7,46.6,29.53,WSW,237,6.0,21.0,92,0.00,,,0.41,meteohub,2013-02-27 17:22:00,
2013-02-27 12:24:00,48.7,46.6,29.53,West,263,11.0,21.0,92,0.00,,,0.41,meteohub,2013-02-27 17:24:00,
2013-02-27 12:28:00,48.6,46.0,29.53,SSW,203,9.0,21.0,91,0.00,,,0.41,meteohub,2013-02-27 17:28:00,
2013-02-27 12:29:00,48.6,46.0,29.53,SW,227,7.0,21.0,91,0.00,,,0.41,meteohub,2013-02-27 17:29:00,
2013-02-27 12:33:00,48.7,46.2,29.53,WSW,249,17.0,21.0,91,0.00,,,0.41,meteohub,2013-02-27 17:33:00,
2013-02-27 12:34:00,48.7,45.9,29.53,West,266,7.0,21.0,90,0.00,,,0.41,meteohub,2013-02-27 17:34:00,
2013-02-27 12:35:00,48.7,45.9,29.53,WSW,250,10.0,21.0,90,0.00,,,0.41,meteohub,2013-02-27 17:35:00,
2013-02-27 12:39:00,48.7,45.9,29.53,SW,220,7.0,18.0,90,0.00,,,0.41,meteohub,2013-02-27 17:39:00,
2013-02-27 12:40:00,48.7,45.9,29.53,WSW,244,13.0,18.0,90,0.00,,,0.41,meteohub,2013-02-27 17:40:00,
2013-02-27 12:44:00,48.7,45.9,29.53,WSW,244,13.0,18.0,90,0.00,,,0.41,meteohub,2013-02-27 17:44:00,
2013-02-27 12:45:00,48.9,46.0,29.53,West,263,10.0,18.0,90,0.00,,,0.41,meteohub,2013-02-27 17:45:00,
2013-02-27 12:49:00,48.7,45.9,29.53,WNW,285,11.0,18.0,90,0.00,,,0.41,meteohub,2013-02-27 17:49:00,
2013-02-27 12:50:00,48.9,46.0,29.53,WSW,246,8.0,18.0,90,0.00,,,0.41,meteohub,2013-02-27 17:50:00,
2013-02-27 12:51:00,48.9,46.0,29.53,SW,233,7.0,18.0,90,0.00,,,0.41,meteohub,2013-02-27 17:51:00,
2013-02-27 12:55:00,48.9,45.9,29.53,WSW,242,12.0,18.0,89,0.00,,,0.41,meteohub,2013-02-27 17:55:00,
2013-02-27 12:56:00,49.1,46.0,29.53,WSW,244,7.0,17.0,89,0.00,,,0.41,meteohub,2013-02-27 17:56:00,
2013-02-27 13:00:00,49.3,46.2,29.53,WSW,248,11.0,17.0,89,0.00,,,0.41,meteohub,2013-02-27 18:00:00,
2013-02-27 13:01:00,49.3,46.2,29.53,WSW,248,7.0,17.0,89,0.00,,,0.41,meteohub,2013-02-27 18:01:00,
2013-02-27 13:05:00,49.3,46.2,29.53,WSW,249,7.0,17.0,89,0.00,,,0.41,meteohub,2013-02-27 18:05:00,
2013-02-27 13:06:00,49.3,46.2,29.53,SW,214,9.0,16.0,89,0.00,,,0.41,meteohub,2013-02-27 18:06:00,
2013-02-27 13:10:00,49.3,46.2,29.52,WSW,251,6.0,16.0,89,0.00,,,0.41,meteohub,2013-02-27 18:10:00,
2013-02-27 13:11:00,49.3,45.9,29.52,SW,229,12.0,16.0,88,0.00,,,0.41,meteohub,2013-02-27 18:11:00,
2013-02-27 13:15:00,49.3,45.5,29.53,West,278,12.0,18.0,87,0.00,,,0.41,meteohub,2013-02-27 18:15:00,
2013-02-27 13:16:00,49.3,45.5,29.53,WSW,240,8.0,18.0,87,0.00,,,0.41,meteohub,2013-02-27 18:16:00,
2013-02-27 13:17:00,49.3,45.5,29.53,SW,230,8.0,18.0,87,0.00,,,0.41,meteohub,2013-02-27 18:17:00,
2013-02-27 13:21:00,49.3,45.5,29.53,WSW,256,7.0,19.0,87,0.00,,,0.41,meteohub,2013-02-27 18:21:00,
2013-02-27 13:23:00,49.3,45.3,29.53,WSW,257,3.0,19.0,86,0.00,,,0.41,meteohub,2013-02-27 18:23:00,
2013-02-27 13:26:00,49.3,45.5,29.53,SW,224,5.0,19.0,87,0.00,,,0.41,meteohub,2013-02-27 18:26:00,
2013-02-27 13:29:00,49.5,45.7,29.53,WNW,300,4.0,19.0,87,0.00,,,0.41,meteohub,2013-02-27 18:29:00,
2013-02-27 13:31:00,49.6,45.9,29.53,West,277,6.0,15.0,87,0.00,,,0.41,meteohub,2013-02-27 18:31:00,
2013-02-27 13:32:00,49.6,45.7,29.53,West,281,12.0,15.0,86,0.00,,,0.41,meteohub,2013-02-27 18:32:00,
2013-02-27 13:34:00,50.2,46.2,29.53,WSW,251,5.0,15.0,86,0.00,,,0.41,meteohub,2013-02-27 18:34:00,
2013-02-27 13:36:00,50.4,46.0,29.53,WSW,257,9.0,16.0,85,0.00,,,0.41,meteohub,2013-02-27 18:36:00,
2013-02-27 13:37:00,50.4,46.0,29.53,West,279,4.0,16.0,85,0.00,,,0.41,meteohub,2013-02-27 18:37:00,
2013-02-27 13:39:00,50.7,46.4,29.54,WNW,287,7.0,16.0,85,0.00,,,0.41,meteohub,2013-02-27 18:39:00,
2013-02-27 13:42:00,51.1,46.4,29.54,West,273,5.0,16.0,84,0.00,,,0.41,meteohub,2013-02-27 18:42:00,
2013-02-27 13:44:00,51.4,46.4,29.54,WNW,288,6.0,16.0,83,0.00,,,0.41,meteohub,2013-02-27 18:44:00,
2013-02-27 13:47:00,51.8,46.2,29.54,WNW,289,8.0,16.0,81,0.00,,,0.41,meteohub,2013-02-27 18:47:00,
2013-02-27 13:49:00,52.2,45.9,29.54,West,275,9.0,16.0,79,0.00,,,0.41,meteohub,2013-02-27 18:49:00,
2013-02-27 13:52:00,52.3,46.0,29.53,West,273,6.0,19.0,79,0.00,,,0.41,meteohub,2013-02-27 18:52:00,
2013-02-27 13:53:00,52.5,46.2,29.53,WSW,252,5.0,19.0,79,0.00,,,0.41,meteohub,2013-02-27 18:53:00,
2013-02-27 13:55:00,52.5,45.9,29.53,WSW,257,9.0,19.0,78,0.00,,,0.41,meteohub,2013-02-27 18:55:00,
2013-02-27 13:57:00,52.9,45.9,29.54,WNW,297,5.0,19.0,77,0.00,,,0.41,meteohub,2013-02-27 18:57:00,
2013-02-27 13:58:00,52.9,45.9,29.54,West,281,8.0,19.0,77,0.00,,,0.41,meteohub,2013-02-27 18:58:00,
2013-02-27 14:00:00,52.9,45.9,29.54,SW,235,4.0,19.0,77,0.00,,,0.41,meteohub,2013-02-27 19:00:00,
2013-02-27 14:03:00,52.9,45.5,29.54,West,266,11.0,18.0,76,0.00,,,0.41,meteohub,2013-02-27 19:03:00,
2013-02-27 14:05:00,53.1,45.7,29.54,West,269,6.0,18.0,76,0.00,,,0.41,meteohub,2013-02-27 19:05:00,
2013-02-27 14:08:00,53.4,45.7,29.54,WSW,238,11.0,21.0,75,0.00,,,0.41,meteohub,2013-02-27 19:08:00,
2013-02-27 14:09:00,53.4,45.3,29.54,West,259,12.0,21.0,74,0.00,,,0.41,meteohub,2013-02-27 19:09:00,
2013-02-27 14:10:00,53.4,45.3,29.54,West,261,5.0,21.0,74,0.00,,,0.41,meteohub,2013-02-27 19:10:00,
2013-02-27 14:13:00,53.8,45.7,29.54,WNW,297,11.0,21.0,74,0.00,,,0.41,meteohub,2013-02-27 19:13:00,
2013-02-27 14:14:00,53.8,45.7,29.54,West,268,10.0,21.0,74,0.00,,,0.41,meteohub,2013-02-27 19:14:00,
2013-02-27 14:15:00,54.0,45.9,29.54,WNW,290,7.0,21.0,74,0.00,,,0.41,meteohub,2013-02-27 19:15:00,
2013-02-27 14:19:00,54.1,45.3,29.54,WSW,258,14.0,21.0,72,0.00,,,0.41,meteohub,2013-02-27 19:19:00,
2013-02-27 14:20:00,54.1,45.3,29.55,WNW,290,8.0,21.0,72,0.00,,,0.41,meteohub,2013-02-27 19:20:00,
2013-02-27 14:24:00,54.3,45.5,29.55,WSW,244,4.0,16.0,72,0.00,,,0.41,meteohub,2013-02-27 19:24:00,
2013-02-27 14:26:00,54.3,45.1,29.55,West,265,6.0,16.0,71,0.00,,,0.41,meteohub,2013-02-27 19:26:00,
2013-02-27 14:29:00,54.1,44.6,29.55,West,266,9.0,16.0,70,0.00,,,0.41,meteohub,2013-02-27 19:29:00,
2013-02-27 14:31:00,54.1,44.6,29.55,WNW,298,8.0,16.0,70,0.00,,,0.41,meteohub,2013-02-27 19:31:00,
2013-02-27 14:34:00,54.0,45.1,29.55,WNW,283,6.0,16.0,72,0.00,,,0.41,meteohub,2013-02-27 19:34:00,
2013-02-27 14:35:00,54.0,45.1,29.55,WNW,290,4.0,16.0,72,0.00,,,0.41,meteohub,2013-02-27 19:35:00,
2013-02-27 14:37:00,54.0,45.1,29.55,SW,227,6.0,16.0,72,0.00,,,0.41,meteohub,2013-02-27 19:37:00,
2013-02-27 14:40:00,54.0,45.1,29.55,WSW,246,7.0,16.0,72,0.00,,,0.41,meteohub,2013-02-27 19:40:00,
2013-02-27 14:42:00,54.0,44.4,29.55,SW,234,7.0,16.0,70,0.00,,,0.41,meteohub,2013-02-27 19:42:00,
2013-02-27 14:45:00,53.8,44.2,29.56,West,277,11.0,16.0,70,0.00,,,0.41,meteohub,2013-02-27 19:45:00,
2013-02-27 14:46:00,53.6,43.7,29.56,SW,231,4.0,17.0,69,0.00,,,0.41,meteohub,2013-02-27 19:46:00,
2013-02-27 14:47:00,53.4,43.5,29.55,WNW,297,7.0,17.0,69,0.00,,,0.41,meteohub,2013-02-27 19:47:00,
2013-02-27 14:50:00,53.2,43.3,29.56,NW,322,9.0,17.0,69,0.00,,,0.41,meteohub,2013-02-27 19:50:00,
2013-02-27 14:51:00,53.2,43.3,29.56,WSW,256,8.0,17.0,69,0.00,,,0.41,meteohub,2013-02-27 19:51:00,
2013-02-27 14:52:00,53.2,43.3,29.56,West,269,9.0,17.0,69,0.00,,,0.41,meteohub,2013-02-27 19:52:00,
2013-02-27 14:55:00,53.4,43.5,29.56,WSW,254,5.0,17.0,69,0.00,,,0.41,meteohub,2013-02-27 19:55:00,
2013-02-27 14:56:00,53.6,43.7,29.56,SW,236,9.0,17.0,69,0.00,,,0.41,meteohub,2013-02-27 19:56:00,
2013-02-27 14:57:00,53.8,43.2,29.56,WNW,296,8.0,17.0,67,0.00,,,0.41,meteohub,2013-02-27 19:57:00,
2013-02-27 15:00:00,54.0,43.7,29.56,WSW,257,11.0,17.0,68,0.00,,,0.41,meteohub,2013-02-27 20:00:00,
2013-02-27 15:01:00,54.0,43.3,29.56,WNW,296,9.0,18.0,67,0.00,,,0.41,meteohub,2013-02-27 20:01:00,
2013-02-27 15:02:00,54.0,43.7,29.57,NW,307,6.0,18.0,68,0.00,,,0.41,meteohub,2013-02-27 20:02:00,
2013-02-27 15:05:00,54.1,43.9,29.57,WNW,286,8.0,18.0,68,0.00,,,0.41,meteohub,2013-02-27 20:05:00,
2013-02-27 15:06:00,54.1,43.9,29.57,WNW,298,7.0,18.0,68,0.00,,,0.41,meteohub,2013-02-27 20:06:00,
2013-02-27 15:08:00,54.1,44.2,29.57,WNW,287,5.0,18.0,69,0.00,,,0.41,meteohub,2013-02-27 20:08:00,
2013-02-27 15:11:00,54.3,44.1,29.57,NW,310,7.0,18.0,68,0.00,,,0.41,meteohub,2013-02-27 20:11:00,
2013-02-27 15:12:00,54.5,44.2,29.57,WNW,298,6.0,18.0,68,0.00,,,0.41,meteohub,2013-02-27 20:12:00,
2013-02-27 15:14:00,54.7,44.2,29.57,WNW,300,10.0,18.0,68,0.00,,,0.41,meteohub,2013-02-27 20:14:00,
2013-02-27 15:16:00,54.5,44.2,29.57,WNW,294,5.0,15.0,68,0.00,,,0.41,meteohub,2013-02-27 20:16:00,
2013-02-27 15:17:00,54.5,44.2,29.57,WNW,288,11.0,15.0,68,0.00,,,0.41,meteohub,2013-02-27 20:17:00,
2013-02-27 15:19:00,54.5,43.7,29.57,WNW,290,17.0,17.0,67,0.00,,,0.41,meteohub,2013-02-27 20:19:00,
2013-02-27 15:21:00,54.3,43.2,29.57,WNW,291,8.0,18.0,66,0.00,,,0.41,meteohub,2013-02-27 20:21:00,
2013-02-27 15:22:00,54.3,43.2,29.57,West,270,12.0,18.0,66,0.00,,,0.41,meteohub,2013-02-27 20:22:00,
2013-02-27 15:24:00,54.3,43.2,29.57,West,270,5.0,18.0,66,0.00,,,0.41,meteohub,2013-02-27 20:24:00,
2013-02-27 15:27:00,54.3,43.2,29.57,West,262,5.0,18.0,66,0.00,,,0.41,meteohub,2013-02-27 20:27:00,
2013-02-27 15:29:00,54.3,43.2,29.57,WNW,293,7.0,18.0,66,0.00,,,0.41,meteohub,2013-02-27 20:29:00,
2013-02-27 15:32:00,54.3,43.2,29.57,West,281,9.0,18.0,66,0.00,,,0.41,meteohub,2013-02-27 20:32:00,
2013-02-27 15:33:00,54.3,43.2,29.58,SW,234,5.0,18.0,66,0.00,,,0.41,meteohub,2013-02-27 20:33:00,
2013-02-27 15:34:00,54.3,43.2,29.58,WSW,240,4.0,18.0,66,0.00,,,0.41,meteohub,2013-02-27 20:34:00,
2013-02-27 15:37:00,54.1,43.3,29.58,WNW,288,4.0,17.0,67,0.00,,,0.41,meteohub,2013-02-27 20:37:00,
2013-02-27 15:38:00,54.3,43.2,29.58,West,267,6.0,17.0,66,0.00,,,0.41,meteohub,2013-02-27 20:38:00,
2013-02-27 15:39:00,54.5,43.3,29.58,WNW,286,8.0,17.0,66,0.00,,,0.41,meteohub,2013-02-27 20:39:00,
2013-02-27 15:42:00,54.7,43.2,29.58,West,262,2.0,16.0,65,0.00,,,0.41,meteohub,2013-02-27 20:42:00,
2013-02-27 15:43:00,54.7,43.5,29.58,WNW,291,7.0,16.0,66,0.00,,,0.41,meteohub,2013-02-27 20:43:00,
2013-02-27 15:44:00,54.7,42.8,29.58,West,269,7.0,16.0,64,0.00,,,0.41,meteohub,2013-02-27 20:44:00,
2013-02-27 15:47:00,54.3,42.4,29.58,WNW,299,12.0,16.0,64,0.00,,,0.41,meteohub,2013-02-27 20:47:00,
2013-02-27 15:48:00,54.1,41.9,29.58,West,272,10.0,16.0,63,0.00,,,0.41,meteohub,2013-02-27 20:48:00,
2013-02-27 15:50:00,54.0,41.7,29.58,WNW,297,12.0,16.0,63,0.00,,,0.41,meteohub,2013-02-27 20:50:00,
2013-02-27 15:53:00,53.4,41.5,29.58,WNW,290,10.0,20.0,64,0.00,,,0.41,meteohub,2013-02-27 20:53:00,
2013-02-27 15:55:00,53.1,41.5,29.58,WNW,303,11.0,20.0,65,0.00,,,0.41,meteohub,2013-02-27 20:55:00,
2013-02-27 15:58:00,52.9,41.9,29.58,WNW,290,8.0,20.0,66,0.00,,,0.41,meteohub,2013-02-27 20:58:00,
2013-02-27 15:59:00,52.9,41.9,29.58,West,279,7.0,20.0,66,0.00,,,0.41,meteohub,2013-02-27 20:59:00,
2013-02-27 16:00:00,52.9,41.4,29.58,WNW,292,8.0,20.0,65,0.00,,,0.41,meteohub,2013-02-27 21:00:00,
2013-02-27 16:03:00,52.9,41.9,29.59,WNW,292,7.0,20.0,66,0.00,,,0.41,meteohub,2013-02-27 21:03:00,
2013-02-27 16:04:00,52.9,41.9,29.59,West,268,12.0,20.0,66,0.00,,,0.41,meteohub,2013-02-27 21:04:00,
2013-02-27 16:06:00,52.9,41.4,29.59,NW,325,18.0,20.0,65,0.00,,,0.41,meteohub,2013-02-27 21:06:00,
2013-02-27 16:08:00,52.9,41.4,29.59,West,261,5.0,20.0,65,0.00,,,0.41,meteohub,2013-02-27 21:08:00,
2013-02-27 16:09:00,52.9,41.4,29.59,WNW,290,11.0,20.0,65,0.00,,,0.41,meteohub,2013-02-27 21:09:00,
2013-02-27 16:10:00,52.9,41.4,29.59,WSW,254,4.0,20.0,65,0.00,,,0.41,meteohub,2013-02-27 21:10:00,
2013-02-27 16:11:00,52.9,41.4,29.59,WNW,291,9.0,19.0,65,0.00,,,0.41,meteohub,2013-02-27 21:11:00,
2013-02-27 16:13:00,52.5,41.2,29.59,WNW,283,12.0,19.0,65,0.00,,,0.41,meteohub,2013-02-27 21:13:00,
2013-02-27 16:14:00,52.5,41.5,29.59,NW,307,4.0,19.0,66,0.00,,,0.41,meteohub,2013-02-27 21:14:00,
2013-02-27 16:15:00,52.5,41.5,29.59,West,262,11.0,19.0,66,0.00,,,0.41,meteohub,2013-02-27 21:15:00,
2013-02-27 16:16:00,52.5,41.5,29.59,West,274,5.0,19.0,66,0.00,,,0.41,meteohub,2013-02-27 21:16:00,
2013-02-27 16:18:00,52.3,41.4,29.59,West,279,14.0,19.0,66,0.00,,,0.41,meteohub,2013-02-27 21:18:00,
2013-02-27 16:19:00,52.3,41.4,29.59,WNW,286,9.0,19.0,66,0.00,,,0.41,meteohub,2013-02-27 21:19:00,
2013-02-27 16:20:00,52.3,41.4,29.59,WNW,299,8.0,19.0,66,0.00,,,0.41,meteohub,2013-02-27 21:20:00,
2013-02-27 16:21:00,52.3,41.7,29.60,West,280,8.0,19.0,67,0.00,,,0.41,meteohub,2013-02-27 21:21:00,
2013-02-27 16:24:00,52.3,41.4,29.60,WNW,293,5.0,19.0,66,0.00,,,0.41,meteohub,2013-02-27 21:24:00,
2013-02-27 16:25:00,52.3,41.4,29.60,WNW,296,5.0,19.0,66,0.00,,,0.41,meteohub,2013-02-27 21:25:00,
2013-02-27 16:26:00,52.3,41.4,29.60,WNW,297,10.0,19.0,66,0.00,,,0.41,meteohub,2013-02-27 21:26:00,
2013-02-27 16:29:00,52.3,41.0,29.60,WNW,297,10.0,19.0,65,0.00,,,0.41,meteohub,2013-02-27 21:29:00,
2013-02-27 16:30:00,52.2,40.8,29.60,WSW,258,8.0,19.0,65,0.00,,,0.41,meteohub,2013-02-27 21:30:00,
2013-02-27 16:31:00,52.2,40.8,29.60,WNW,283,7.0,19.0,65,0.00,,,0.41,meteohub,2013-02-27 21:31:00,
2013-02-27 16:34:00,52.0,41.0,29.60,WSW,257,6.0,19.0,66,0.00,,,0.41,meteohub,2013-02-27 21:34:00,
2013-02-27 16:36:00,52.0,41.0,29.60,WSW,239,5.0,19.0,66,0.00,,,0.41,meteohub,2013-02-27 21:36:00,
2013-02-27 16:37:00,52.0,41.0,29.60,West,277,13.0,19.0,66,0.00,,,0.41,meteohub,2013-02-27 21:37:00,
2013-02-27 16:39:00,52.0,41.4,29.60,WSW,248,10.0,19.0,67,0.00,,,0.41,meteohub,2013-02-27 21:39:00,
2013-02-27 16:40:00,51.8,41.2,29.60,WNW,294,6.0,19.0,67,0.00,,,0.41,meteohub,2013-02-27 21:40:00,
2013-02-27 16:41:00,51.8,41.2,29.60,WNW,293,11.0,17.0,67,0.00,,,0.41,meteohub,2013-02-27 21:41:00,
2013-02-27 16:42:00,51.8,40.8,29.60,SW,226,11.0,17.0,66,0.00,,,0.41,meteohub,2013-02-27 21:42:00,
2013-02-27 16:44:00,51.6,40.6,29.60,SW,234,3.0,17.0,66,0.00,,,0.41,meteohub,2013-02-27 21:44:00,
2013-02-27 16:45:00,51.6,41.0,29.61,WNW,285,7.0,17.0,67,0.00,,,0.41,meteohub,2013-02-27 21:45:00,
2013-02-27 16:46:00,51.6,40.6,29.61,West,281,10.0,17.0,66,0.00,,,0.41,meteohub,2013-02-27 21:46:00,
2013-02-27 16:47:00,51.6,40.6,29.61,WNW,302,17.0,17.0,66,0.00,,,0.41,meteohub,2013-02-27 21:47:00,
2013-02-27 16:49:00,51.6,40.6,29.61,WNW,283,17.0,17.0,66,0.00,,,0.41,meteohub,2013-02-27 21:49:00,
2013-02-27 16:50:00,51.4,40.8,29.61,WSW,244,4.0,17.0,67,0.00,,,0.41,meteohub,2013-02-27 21:50:00,
2013-02-27 16:51:00,51.4,40.8,29.61,West,260,5.0,17.0,67,0.00,,,0.41,meteohub,2013-02-27 21:51:00,
2013-02-27 16:53:00,51.4,40.8,29.61,West,271,9.0,17.0,67,0.00,,,0.41,meteohub,2013-02-27 21:53:00,
2013-02-27 16:54:00,51.4,41.2,29.61,WSW,254,7.0,17.0,68,0.00,,,0.41,meteohub,2013-02-27 21:54:00,
2013-02-27 16:55:00,51.4,41.2,29.61,WNW,299,7.0,17.0,68,0.00,,,0.41,meteohub,2013-02-27 21:55:00,
2013-02-27 16:57:00,51.4,41.2,29.61,West,277,11.0,17.0,68,0.00,,,0.41,meteohub,2013-02-27 21:57:00,
2013-02-27 16:58:00,51.3,41.0,29.62,WSW,256,10.0,17.0,68,0.00,,,0.41,meteohub,2013-02-27 21:58:00,
2013-02-27 16:59:00,51.3,41.4,29.62,West,280,11.0,17.0,69,0.00,,,0.41,meteohub,2013-02-27 21:59:00,
2013-02-27 17:00:00,51.3,41.4,29.62,West,275,8.0,17.0,69,0.00,,,0.41,meteohub,2013-02-27 22:00:00,
2013-02-27 17:02:00,51.3,41.4,29.62,West,273,5.0,17.0,69,0.00,,,0.41,meteohub,2013-02-27 22:02:00,
2013-02-27 17:03:00,51.3,41.4,29.62,West,275,7.0,17.0,69,0.00,,,0.41,meteohub,2013-02-27 22:03:00,
2013-02-27 17:04:00,51.3,41.4,29.62,West,272,9.0,17.0,69,0.00,,,0.41,meteohub,2013-02-27 22:04:00,
2013-02-27 17:06:00,51.3,41.4,29.62,WNW,292,9.0,15.0,69,0.00,,,0.41,meteohub,2013-02-27 22:06:00,
2013-02-27 17:07:00,51.3,41.4,29.62,West,279,3.0,15.0,69,0.00,,,0.41,meteohub,2013-02-27 22:07:00,
2013-02-27 17:08:00,51.3,41.4,29.62,WNW,303,10.0,15.0,69,0.00,,,0.41,meteohub,2013-02-27 22:08:00,
2013-02-27 17:10:00,51.3,41.0,29.62,NW,309,9.0,15.0,68,0.00,,,0.41,meteohub,2013-02-27 22:10:00,
2013-02-27 17:11:00,51.3,41.0,29.62,WSW,257,9.0,21.0,68,0.00,,,0.41,meteohub,2013-02-27 22:11:00,
2013-02-27 17:13:00,51.1,40.8,29.62,WSW,254,6.0,21.0,68,0.00,,,0.41,meteohub,2013-02-27 22:13:00,
2013-02-27 17:15:00,51.1,40.8,29.62,WNW,288,13.0,21.0,68,0.00,,,0.41,meteohub,2013-02-27 22:15:00,
2013-02-27 17:17:00,50.9,40.6,29.62,West,264,5.0,21.0,68,0.00,,,0.41,meteohub,2013-02-27 22:17:00,
2013-02-27 17:18:00,50.9,40.6,29.62,West,269,13.0,21.0,68,0.00,,,0.41,meteohub,2013-02-27 22:18:00,
2013-02-27 17:19:00,50.9,40.3,29.62,West,271,5.0,21.0,67,0.00,,,0.41,meteohub,2013-02-27 22:19:00,
2013-02-27 17:20:00,50.9,40.3,29.62,West,271,8.0,21.0,67,0.00,,,0.41,meteohub,2013-02-27 22:20:00,
2013-02-27 17:22:00,50.7,40.1,29.62,NW,323,5.0,21.0,67,0.00,,,0.41,meteohub,2013-02-27 22:22:00,
2013-02-27 17:23:00,50.7,40.5,29.62,WSW,257,5.0,21.0,68,0.00,,,0.41,meteohub,2013-02-27 22:23:00,
2013-02-27 17:25:00,50.5,40.5,29.62,WNW,285,6.0,21.0,68,0.00,,,0.41,meteohub,2013-02-27 22:25:00,
2013-02-27 17:27:00,50.5,39.9,29.62,West,272,7.0,15.0,67,0.00,,,0.41,meteohub,2013-02-27 22:27:00,
2013-02-27 17:29:00,50.4,39.7,29.62,West,281,8.0,15.0,67,0.00,,,0.41,meteohub,2013-02-27 22:29:00,
2013-02-27 17:30:00,50.4,39.7,29.62,NW,307,4.0,15.0,67,0.00,,,0.41,meteohub,2013-02-27 22:30:00,
2013-02-27 17:31:00,50.4,39.7,29.62,WSW,254,7.0,15.0,67,0.00,,,0.41,meteohub,2013-02-27 22:31:00,
2013-02-27 17:32:00,50.4,39.7,29.63,WNW,288,3.0,15.0,67,0.00,,,0.41,meteohub,2013-02-27 22:32:00,
2013-02-27 17:34:00,50.4,39.7,29.63,West,281,4.0,15.0,67,0.00,,,0.41,meteohub,2013-02-27 22:34:00,
2013-02-27 17:35:00,50.2,39.6,29.63,West,272,3.0,15.0,67,0.00,,,0.41,meteohub,2013-02-27 22:35:00,
2013-02-27 17:36:00,50.2,40.1,29.63,WSW,254,3.0,14.0,68,0.00,,,0.41,meteohub,2013-02-27 22:36:00,
2013-02-27 17:37:00,50.2,40.1,29.63,West,279,6.0,14.0,68,0.00,,,0.41,meteohub,2013-02-27 22:37:00,
2013-02-27 17:40:00,50.0,39.9,29.64,WSW,254,6.0,14.0,68,0.00,,,0.41,meteohub,2013-02-27 22:40:00,
2013-02-27 17:41:00,49.8,40.1,29.64,WNW,286,5.0,14.0,69,0.00,,,0.41,meteohub,2013-02-27 22:41:00,
2013-02-27 17:43:00,49.8,40.1,29.64,West,275,6.0,14.0,69,0.00,,,0.41,meteohub,2013-02-27 22:43:00,
2013-02-27 17:45:00,49.6,40.3,29.64,West,275,5.0,14.0,70,0.00,,,0.41,meteohub,2013-02-27 22:45:00,
2013-02-27 17:46:00,49.6,40.3,29.64,West,278,6.0,10.0,70,0.00,,,0.41,meteohub,2013-02-27 22:46:00,
2013-02-27 17:48:00,49.5,40.1,29.64,WSW,258,5.0,10.0,70,0.00,,,0.41,meteohub,2013-02-27 22:48:00,
2013-02-27 17:50:00,49.5,40.1,29.64,West,275,4.0,10.0,70,0.00,,,0.41,meteohub,2013-02-27 22:50:00,
2013-02-27 17:51:00,49.3,39.9,29.64,West,279,3.0,10.0,70,0.00,,,0.41,meteohub,2013-02-27 22:51:00,
2013-02-27 17:53:00,49.3,40.3,29.63,West,274,3.0,10.0,71,0.00,,,0.41,meteohub,2013-02-27 22:53:00,
2013-02-27 17:56:00,49.1,40.1,29.63,WNW,288,3.0,10.0,71,0.00,,,0.41,meteohub,2013-02-27 22:56:00,
2013-02-27 17:58:00,48.9,39.9,29.63,WNW,295,2.0,10.0,71,0.00,,,0.41,meteohub,2013-02-27 22:58:00,
2013-02-27 18:01:00,48.7,40.1,29.64,West,269,2.0,8.0,72,0.00,,,0.41,meteohub,2013-02-27 23:01:00,
2013-02-27 18:03:00,48.7,40.1,29.64,WSW,252,2.0,8.0,72,0.00,,,0.41,meteohub,2013-02-27 23:03:00,
2013-02-27 18:06:00,48.7,40.1,29.64,WNW,288,5.0,7.0,72,0.00,,,0.41,meteohub,2013-02-27 23:06:00,
2013-02-27 18:07:00,48.6,39.9,29.64,WNW,299,3.0,7.0,72,0.00,,,0.41,meteohub,2013-02-27 23:07:00,
2013-02-27 18:08:00,48.6,39.9,29.64,West,278,3.0,7.0,72,0.00,,,0.41,meteohub,2013-02-27 23:08:00,
2013-02-27 18:11:00,48.6,39.9,29.64,West,266,4.0,6.0,72,0.00,,,0.41,meteohub,2013-02-27 23:11:00,
2013-02-27 18:12:00,48.6,40.3,29.64,West,281,3.0,6.0,73,0.00,,,0.41,meteohub,2013-02-27 23:12:00,
2013-02-27 18:13:00,48.4,40.1,29.64,West,274,2.0,6.0,73,0.00,,,0.41,meteohub,2013-02-27 23:13:00,
2013-02-27 18:16:00,48.4,40.1,29.64,West,271,1.0,6.0,73,0.00,,,0.41,meteohub,2013-02-27 23:16:00,
2013-02-27 18:17:00,48.4,40.1,29.64,WNW,290,3.0,6.0,73,0.00,,,0.41,meteohub,2013-02-27 23:17:00,
2013-02-27 18:18:00,48.4,40.1,29.65,WNW,284,1.0,6.0,73,0.00,,,0.41,meteohub,2013-02-27 23:18:00,
2013-02-27 18:21:00,48.2,39.9,29.65,West,272,0.0,6.0,73,0.00,,,0.41,meteohub,2013-02-27 23:21:00,
2013-02-27 18:22:00,48.2,39.9,29.65,West,274,1.0,6.0,73,0.00,,,0.41,meteohub,2013-02-27 23:22:00,
2013-02-27 18:23:00,48.0,39.7,29.65,West,277,1.0,6.0,73,0.00,,,0.41,meteohub,2013-02-27 23:23:00,
2013-02-27 18:26:00,48.0,39.7,29.65,West,275,2.0,5.0,73,0.00,,,0.41,meteohub,2013-02-27 23:26:00,
2013-02-27 18:27:00,48.0,39.7,29.65,West,275,0.0,5.0,73,0.00,,,0.41,meteohub,2013-02-27 23:27:00,
2013-02-27 18:28:00,48.0,40.1,29.65,West,275,1.0,5.0,74,0.00,,,0.41,meteohub,2013-02-27 23:28:00,
2013-02-27 18:29:00,48.0,40.1,29.65,West,271,2.0,5.0,74,0.00,,,0.41,meteohub,2013-02-27 23:29:00,
2013-02-27 18:31:00,47.8,39.9,29.65,WSW,258,1.0,5.0,74,0.00,,,0.41,meteohub,2013-02-27 23:31:00,
2013-02-27 18:32:00,47.8,39.9,29.65,WSW,258,1.0,5.0,74,0.00,,,0.41,meteohub,2013-02-27 23:32:00,
2013-02-27 18:34:00,47.8,39.9,29.65,WNW,292,2.0,5.0,74,0.00,,,0.41,meteohub,2013-02-27 23:34:00,
2013-02-27 18:37:00,47.8,39.9,29.65,West,271,1.0,5.0,74,0.00,,,0.41,meteohub,2013-02-27 23:37:00,
2013-02-27 18:39:00,47.8,39.9,29.65,WSW,254,2.0,5.0,74,0.00,,,0.41,meteohub,2013-02-27 23:39:00,
2013-02-27 18:42:00,47.8,39.9,29.65,WSW,254,1.0,4.0,74,0.00,,,0.41,meteohub,2013-02-27 23:42:00,
2013-02-27 18:44:00,47.7,40.1,29.65,WSW,254,0.0,4.0,75,0.00,,,0.41,meteohub,2013-02-27 23:44:00,
2013-02-27 18:47:00,47.7,40.1,29.65,West,272,2.0,4.0,75,0.00,,,0.41,meteohub,2013-02-27 23:47:00,
2013-02-27 18:49:00,47.5,39.9,29.65,West,272,0.0,4.0,75,0.00,,,0.41,meteohub,2013-02-27 23:49:00,
2013-02-27 18:52:00,47.5,39.9,29.65,West,272,0.0,4.0,75,0.00,,,0.41,meteohub,2013-02-27 23:52:00,
2013-02-27 18:54:00,47.3,39.7,29.65,West,272,1.0,4.0,75,0.00,,,0.41,meteohub,2013-02-27 23:54:00,
2013-02-27 18:55:00,47.3,39.7,29.65,West,272,1.0,4.0,75,0.00,,,0.41,meteohub,2013-02-27 23:55:00,
2013-02-27 18:57:00,47.3,40.1,29.66,West,272,0.0,3.0,76,0.00,,,0.41,meteohub,2013-02-27 23:57:00,
2013-02-27 18:59:00,47.1,39.9,29.66,West,272,0.0,3.0,76,0.00,,,0.41,meteohub,2013-02-27 23:59:00,
2013-02-27 19:00:00,47.1,39.9,29.66,West,272,2.0,3.0,76,0.00,,,0.41,meteohub,2013-02-28 00:00:00,
2013-02-27 19:02:00,47.1,39.9,29.65,West,272,0.0,3.0,76,0.00,,,0.41,meteohub,2013-02-28 00:02:00,
2013-02-27 19:03:00,47.1,39.9,29.65,West,272,0.0,3.0,76,0.00,,,0.41,meteohub,2013-02-28 00:03:00,
2013-02-27 19:04:00,47.1,39.9,29.65,West,272,0.0,3.0,76,0.00,,,0.41,meteohub,2013-02-28 00:04:00,
2013-02-27 19:05:00,47.1,39.9,29.65,West,272,0.0,2.0,76,0.00,,,0.41,meteohub,2013-02-28 00:05:00,
2013-02-27 19:07:00,46.9,39.7,29.65,West,272,0.0,2.0,76,0.00,,,0.41,meteohub,2013-02-28 00:07:00,
2013-02-27 19:08:00,46.9,39.7,29.65,West,272,0.0,2.0,76,0.00,,,0.41,meteohub,2013-02-28 00:08:00,
2013-02-27 19:09:00,46.8,39.6,29.65,West,272,0.0,2.0,76,0.00,,,0.41,meteohub,2013-02-28 00:09:00,
2013-02-27 19:10:00,46.8,39.6,29.66,West,272,0.0,2.0,76,0.00,,,0.41,meteohub,2013-02-28 00:10:00,
2013-02-27 19:13:00,46.6,39.4,29.66,West,272,0.0,2.0,76,0.00,,,0.41,meteohub,2013-02-28 00:13:00,
2013-02-27 19:14:00,46.2,39.4,29.66,West,272,0.0,2.0,77,0.00,,,0.41,meteohub,2013-02-28 00:14:00,
2013-02-27 19:15:00,46.2,39.0,29.65,West,272,0.0,2.0,76,0.00,,,0.41,meteohub,2013-02-28 00:15:00,
2013-02-27 19:18:00,46.0,39.2,29.66,West,272,0.0,1.0,77,0.00,,,0.41,meteohub,2013-02-28 00:18:00,
2013-02-27 19:19:00,46.0,39.2,29.66,West,272,1.0,1.0,77,0.00,,,0.41,meteohub,2013-02-28 00:19:00,
2013-02-27 19:20:00,45.9,39.0,29.66,West,272,0.0,1.0,77,0.00,,,0.41,meteohub,2013-02-28 00:20:00,
2013-02-27 19:23:00,45.7,39.2,29.66,West,272,0.0,1.0,78,0.00,,,0.41,meteohub,2013-02-28 00:23:00,
2013-02-27 19:24:00,45.7,39.2,29.66,West,272,0.0,1.0,78,0.00,,,0.41,meteohub,2013-02-28 00:24:00,
2013-02-27 19:25:00,45.7,39.2,29.66,West,272,0.0,1.0,78,0.00,,,0.41,meteohub,2013-02-28 00:25:00,
2013-02-27 19:28:00,45.5,39.0,29.66,West,272,0.0,1.0,78,0.00,,,0.41,meteohub,2013-02-28 00:28:00,
2013-02-27 19:29:00,45.5,39.0,29.66,West,272,0.0,1.0,78,0.00,,,0.41,meteohub,2013-02-28 00:29:00,
2013-02-27 19:30:00,45.3,39.2,29.66,West,272,0.0,1.0,79,0.00,,,0.41,meteohub,2013-02-28 00:30:00,
2013-02-27 19:34:00,45.3,39.2,29.67,West,272,0.0,1.0,79,0.00,,,0.41,meteohub,2013-02-28 00:34:00,
2013-02-27 19:35:00,45.3,39.2,29.67,West,272,1.0,1.0,79,0.00,,,0.41,meteohub,2013-02-28 00:35:00,
2013-02-27 19:36:00,45.3,39.2,29.66,West,272,0.0,1.0,79,0.00,,,0.41,meteohub,2013-02-28 00:36:00,
2013-02-27 19:39:00,45.3,39.2,29.67,West,272,0.0,1.0,79,0.00,,,0.41,meteohub,2013-02-28 00:39:00,
2013-02-27 19:40:00,45.1,39.4,29.67,West,272,1.0,1.0,80,0.00,,,0.41,meteohub,2013-02-28 00:40:00,
2013-02-27 19:41:00,45.1,39.4,29.67,West,272,0.0,1.0,80,0.00,,,0.41,meteohub,2013-02-28 00:41:00,
2013-02-27 19:44:00,45.1,39.4,29.67,West,272,0.0,1.0,80,0.00,,,0.41,meteohub,2013-02-28 00:44:00,
2013-02-27 19:45:00,45.1,39.4,29.66,West,272,0.0,1.0,80,0.00,,,0.41,meteohub,2013-02-28 00:45:00,
2013-02-27 19:46:00,45.1,39.4,29.66,West,272,0.0,1.0,80,0.00,,,0.41,meteohub,2013-02-28 00:46:00,
2013-02-27 19:49:00,45.1,39.4,29.67,West,272,0.0,1.0,80,0.00,,,0.41,meteohub,2013-02-28 00:49:00,
2013-02-27 19:51:00,45.0,39.6,29.67,West,272,0.0,1.0,81,0.00,,,0.41,meteohub,2013-02-28 00:51:00,
2013-02-27 19:52:00,45.0,39.6,29.67,West,272,0.0,1.0,81,0.00,,,0.41,meteohub,2013-02-28 00:52:00,
2013-02-27 19:55:00,45.0,39.6,29.67,West,272,0.0,1.0,81,0.00,,,0.41,meteohub,2013-02-28 00:55:00,
2013-02-27 19:56:00,45.0,39.6,29.67,West,272,0.0,1.0,81,0.00,,,0.41,meteohub,2013-02-28 00:56:00,
2013-02-27 19:57:00,45.0,39.6,29.67,West,272,0.0,1.0,81,0.00,,,0.41,meteohub,2013-02-28 00:57:00,
2013-02-27 20:00:00,45.0,39.6,29.66,West,272,0.0,1.0,81,0.00,,,0.41,meteohub,2013-02-28 01:00:00,
2013-02-27 20:01:00,45.0,39.6,29.67,West,272,0.0,1.0,81,0.00,,,0.41,meteohub,2013-02-28 01:01:00,
2013-02-27 20:02:00,45.0,39.6,29.67,West,272,0.0,1.0,81,0.00,,,0.41,meteohub,2013-02-28 01:02:00,
2013-02-27 20:05:00,45.0,39.6,29.67,West,272,0.0,1.0,81,0.00,,,0.41,meteohub,2013-02-28 01:05:00,
2013-02-27 20:06:00,45.0,39.6,29.67,West,272,0.0,1.0,81,0.00,,,0.41,meteohub,2013-02-28 01:06:00,
2013-02-27 20:07:00,45.0,39.7,29.66,West,272,0.0,1.0,82,0.00,,,0.41,meteohub,2013-02-28 01:07:00,
2013-02-27 20:10:00,45.0,39.7,29.66,West,272,0.0,1.0,82,0.00,,,0.41,meteohub,2013-02-28 01:10:00,
2013-02-27 20:11:00,45.0,39.7,29.67,West,272,0.0,1.0,82,0.00,,,0.41,meteohub,2013-02-28 01:11:00,
2013-02-27 20:13:00,45.0,39.7,29.66,West,272,0.0,1.0,82,0.00,,,0.41,meteohub,2013-02-28 01:13:00,
2013-02-27 20:15:00,44.8,39.6,29.66,West,272,0.0,1.0,82,0.00,,,0.41,meteohub,2013-02-28 01:15:00,
2013-02-27 20:16:00,44.8,39.6,29.66,West,272,0.0,1.0,82,0.00,,,0.41,meteohub,2013-02-28 01:16:00,
2013-02-27 20:18:00,44.8,39.6,29.66,West,272,0.0,1.0,82,0.00,,,0.41,meteohub,2013-02-28 01:18:00,
2013-02-27 20:20:00,44.8,39.6,29.66,West,272,0.0,1.0,82,0.00,,,0.41,meteohub,2013-02-28 01:20:00,
2013-02-27 20:21:00,44.8,39.6,29.66,West,272,0.0,0.0,82,0.00,,,0.41,meteohub,2013-02-28 01:21:00,
2013-02-27 20:23:00,44.8,39.6,29.66,West,272,0.0,0.0,82,0.00,,,0.41,meteohub,2013-02-28 01:23:00,
2013-02-27 20:24:00,44.8,39.9,29.66,West,272,0.0,0.0,83,0.00,,,0.41,meteohub,2013-02-28 01:24:00,
2013-02-27 20:26:00,44.8,39.9,29.66,West,272,0.0,1.0,83,0.00,,,0.41,meteohub,2013-02-28 01:26:00,
2013-02-27 20:29:00,44.6,39.7,29.66,West,272,0.0,1.0,83,0.00,,,0.41,meteohub,2013-02-28 01:29:00,
2013-02-27 20:31:00,44.6,39.7,29.66,West,272,0.0,1.0,83,0.00,,,0.41,meteohub,2013-02-28 01:31:00,
2013-02-27 20:34:00,44.6,39.7,29.67,West,272,0.0,1.0,83,0.00,,,0.41,meteohub,2013-02-28 01:34:00,
2013-02-27 20:36:00,44.6,39.7,29.67,West,271,0.0,1.0,83,0.00,,,0.41,meteohub,2013-02-28 01:36:00,
2013-02-27 20:37:00,44.6,39.7,29.67,West,271,0.0,1.0,83,0.00,,,0.41,meteohub,2013-02-28 01:37:00,
2013-02-27 20:39:00,44.6,39.7,29.67,West,271,0.0,1.0,83,0.00,,,0.41,meteohub,2013-02-28 01:39:00,
2013-02-27 20:40:00,44.6,39.7,29.67,West,267,2.0,2.0,83,0.00,,,0.41,meteohub,2013-02-28 01:40:00,
2013-02-27 20:41:00,44.6,40.1,29.67,West,264,0.0,1.0,84,0.00,,,0.41,meteohub,2013-02-28 01:41:00,
2013-02-27 20:42:00,44.6,40.1,29.67,West,264,1.0,1.0,84,0.00,,,0.41,meteohub,2013-02-28 01:42:00,
2013-02-27 20:44:00,44.8,40.3,29.67,West,264,1.0,1.0,84,0.00,,,0.41,meteohub,2013-02-28 01:44:00,
2013-02-27 20:45:00,44.8,40.3,29.67,West,264,1.0,1.0,84,0.00,,,0.41,meteohub,2013-02-28 01:45:00,
2013-02-27 20:47:00,44.8,40.3,29.67,West,261,2.0,2.0,84,0.00,,,0.41,meteohub,2013-02-28 01:47:00,
2013-02-27 20:48:00,44.8,40.3,29.67,West,261,1.0,2.0,84,0.00,,,0.41,meteohub,2013-02-28 01:48:00,
2013-02-27 20:50:00,44.8,40.3,29.67,West,260,0.0,2.0,84,0.00,,,0.41,meteohub,2013-02-28 01:50:00,
2013-02-27 20:52:00,44.8,40.3,29.67,West,259,1.0,3.0,84,0.00,,,0.41,meteohub,2013-02-28 01:52:00,
2013-02-27 20:53:00,45.0,40.5,29.67,West,259,0.0,3.0,84,0.00,,,0.41,meteohub,2013-02-28 01:53:00,
2013-02-27 20:55:00,45.0,40.5,29.67,West,259,0.0,3.0,84,0.00,,,0.41,meteohub,2013-02-28 01:55:00,
2013-02-27 20:57:00,45.0,40.5,29.67,West,259,0.0,3.0,84,0.00,,,0.41,meteohub,2013-02-28 01:57:00,
2013-02-27 20:59:00,45.0,40.5,29.67,West,259,0.0,3.0,84,0.00,,,0.41,meteohub,2013-02-28 01:59:00,
2013-02-27 21:00:00,45.0,40.5,29.67,West,259,1.0,3.0,84,0.00,,,0.41,meteohub,2013-02-28 02:00:00,
2013-02-27 21:03:00,45.0,40.1,29.67,West,259,1.0,3.0,83,0.00,,,0.41,meteohub,2013-02-28 02:03:00,
2013-02-27 21:04:00,45.0,40.1,29.67,West,259,0.0,3.0,83,0.00,,,0.41,meteohub,2013-02-28 02:04:00,
2013-02-27 21:05:00,44.8,39.9,29.67,WSW,252,3.0,3.0,83,0.00,,,0.41,meteohub,2013-02-28 02:05:00,
2013-02-27 21:08:00,44.8,40.3,29.67,WSW,252,2.0,2.0,84,0.00,,,0.41,meteohub,2013-02-28 02:08:00,
2013-02-27 21:09:00,44.8,40.3,29.67,WSW,250,1.0,2.0,84,0.00,,,0.41,meteohub,2013-02-28 02:09:00,
2013-02-27 21:10:00,44.8,40.3,29.67,WSW,249,1.0,3.0,84,0.00,,,0.41,meteohub,2013-02-28 02:10:00,
2013-02-27 21:11:00,44.8,40.3,29.67,WSW,249,1.0,3.0,84,0.00,,,0.41,meteohub,2013-02-28 02:11:00,
2013-02-27 21:13:00,45.0,40.5,29.68,SW,226,1.0,3.0,84,0.00,,,0.41,meteohub,2013-02-28 02:13:00,
2013-02-27 21:14:00,45.0,40.5,29.68,SW,217,2.0,3.0,84,0.00,,,0.41,meteohub,2013-02-28 02:14:00,
2013-02-27 21:15:00,45.0,40.5,29.68,SSW,205,0.0,3.0,84,0.00,,,0.41,meteohub,2013-02-28 02:15:00,
2013-02-27 21:16:00,45.0,40.5,29.68,SSW,206,2.0,3.0,84,0.00,,,0.41,meteohub,2013-02-28 02:16:00,
2013-02-27 21:18:00,45.0,40.1,29.68,SSW,205,4.0,4.0,83,0.00,,,0.41,meteohub,2013-02-28 02:18:00,
2013-02-27 21:20:00,45.0,40.1,29.68,SW,217,2.0,3.0,83,0.00,,,0.41,meteohub,2013-02-28 02:20:00,
2013-02-27 21:21:00,44.8,39.9,29.68,SSW,213,2.0,5.0,83,0.00,,,0.41,meteohub,2013-02-28 02:21:00,
2013-02-27 21:24:00,44.8,40.3,29.68,SSW,205,1.0,5.0,84,0.00,,,0.41,meteohub,2013-02-28 02:24:00,
2013-02-27 21:25:00,44.6,40.1,29.68,SSW,204,3.0,5.0,84,0.00,,,0.41,meteohub,2013-02-28 02:25:00,
2013-02-27 21:26:00,44.6,40.1,29.68,SSW,213,1.0,5.0,84,0.00,,,0.41,meteohub,2013-02-28 02:26:00,
2013-02-27 21:30:00,44.4,39.9,29.68,SSW,213,0.0,5.0,84,0.00,,,0.41,meteohub,2013-02-28 02:30:00,
2013-02-27 21:31:00,44.4,39.9,29.68,SSW,195,1.0,5.0,84,0.00,,,0.41,meteohub,2013-02-28 02:31:00,
2013-02-27 21:32:00,44.2,39.7,29.67,SSW,195,1.0,5.0,84,0.00,,,0.41,meteohub,2013-02-28 02:32:00,
2013-02-27 21:35:00,44.1,39.9,29.67,SSW,200,2.0,5.0,85,0.00,,,0.41,meteohub,2013-02-28 02:35:00,
2013-02-27 21:36:00,44.1,39.9,29.67,SSW,202,2.0,4.0,85,0.00,,,0.41,meteohub,2013-02-28 02:36:00,
2013-02-27 21:37:00,44.1,39.9,29.67,SSW,198,2.0,4.0,85,0.00,,,0.41,meteohub,2013-02-28 02:37:00,
2013-02-27 21:41:00,43.9,39.9,29.67,SSW,209,1.0,4.0,86,0.00,,,0.41,meteohub,2013-02-28 02:41:00,
2013-02-27 21:42:00,43.9,39.9,29.67,SSW,209,2.0,4.0,86,0.00,,,0.41,meteohub,2013-02-28 02:42:00,
2013-02-27 21:46:00,43.7,39.7,29.67,SSW,210,1.0,4.0,86,0.00,,,0.41,meteohub,2013-02-28 02:46:00,
2013-02-27 21:47:00,43.7,39.7,29.67,SSW,210,0.0,4.0,86,0.00,,,0.41,meteohub,2013-02-28 02:47:00,
2013-02-27 21:51:00,43.7,40.1,29.67,SSW,210,0.0,4.0,87,0.00,,,0.41,meteohub,2013-02-28 02:51:00,
2013-02-27 21:52:00,43.7,40.1,29.67,SSW,210,0.0,4.0,87,0.00,,,0.41,meteohub,2013-02-28 02:52:00,
2013-02-27 21:53:00,43.5,39.9,29.67,SSW,210,0.0,4.0,87,0.00,,,0.41,meteohub,2013-02-28 02:53:00,
2013-02-27 21:56:00,43.5,39.9,29.67,SSW,210,0.0,3.0,87,0.00,,,0.41,meteohub,2013-02-28 02:56:00,
2013-02-27 21:57:00,43.5,39.9,29.67,SSW,210,1.0,3.0,87,0.00,,,0.41,meteohub,2013-02-28 02:57:00,
2013-02-27 21:58:00,43.5,39.9,29.67,SSW,210,0.0,3.0,87,0.00,,,0.41,meteohub,2013-02-28 02:58:00,
2013-02-27 22:02:00,43.7,40.1,29.67,SSW,210,0.0,2.0,87,0.00,,,0.41,meteohub,2013-02-28 03:02:00,
2013-02-27 22:03:00,43.7,40.1,29.67,SSW,210,0.0,2.0,87,0.00,,,0.41,meteohub,2013-02-28 03:03:00,
2013-02-27 22:07:00,43.9,40.3,29.67,SSW,210,0.0,1.0,87,0.00,,,0.41,meteohub,2013-02-28 03:07:00,
2013-02-27 22:08:00,43.9,40.3,29.67,SSW,210,0.0,1.0,87,0.00,,,0.41,meteohub,2013-02-28 03:08:00,
2013-02-27 22:09:00,43.9,40.3,29.67,SSW,210,0.0,1.0,87,0.00,,,0.41,meteohub,2013-02-28 03:09:00,
2013-02-27 22:13:00,44.1,40.5,29.67,SSW,210,0.0,1.0,87,0.00,,,0.41,meteohub,2013-02-28 03:13:00,
2013-02-27 22:14:00,44.1,40.5,29.67,SSW,210,0.0,1.0,87,0.00,,,0.41,meteohub,2013-02-28 03:14:00,
2013-02-27 22:18:00,44.2,40.6,29.66,SSW,210,0.0,1.0,87,0.00,,,0.41,meteohub,2013-02-28 03:18:00,
2013-02-27 22:19:00,44.2,40.6,29.66,SSW,210,0.0,1.0,87,0.00,,,0.41,meteohub,2013-02-28 03:19:00,
2013-02-27 22:24:00,44.2,40.6,29.67,SSW,210,0.0,1.0,87,0.00,,,0.41,meteohub,2013-02-28 03:24:00,
2013-02-27 22:25:00,44.2,40.6,29.67,SSW,210,0.0,1.0,87,0.00,,,0.41,meteohub,2013-02-28 03:25:00,
2013-02-27 22:29:00,44.2,40.6,29.67,West,281,0.0,1.0,87,0.00,,,0.41,meteohub,2013-02-28 03:29:00,
2013-02-27 22:30:00,44.2,40.6,29.67,West,281,1.0,1.0,87,0.00,,,0.41,meteohub,2013-02-28 03:30:00,
2013-02-27 22:34:00,44.4,40.8,29.67,WSW,252,1.0,3.0,87,0.00,,,0.41,meteohub,2013-02-28 03:34:00,
2013-02-27 22:35:00,44.4,40.8,29.67,WSW,251,2.0,3.0,87,0.00,,,0.41,meteohub,2013-02-28 03:35:00,
2013-02-27 22:36:00,44.4,40.8,29.67,WSW,251,1.0,3.0,87,0.00,,,0.41,meteohub,2013-02-28 03:36:00,
2013-02-27 22:40:00,44.4,40.8,29.67,WSW,257,0.0,3.0,87,0.00,,,0.41,meteohub,2013-02-28 03:40:00,
2013-02-27 22:41:00,44.4,40.8,29.67,WSW,257,0.0,4.0,87,0.00,,,0.41,meteohub,2013-02-28 03:41:00,
2013-02-27 22:45:00,44.4,40.8,29.66,WSW,248,1.0,4.0,87,0.00,,,0.41,meteohub,2013-02-28 03:45:00,
2013-02-27 22:46:00,44.4,40.8,29.66,WSW,243,2.0,4.0,87,0.00,,,0.41,meteohub,2013-02-28 03:46:00,
2013-02-27 22:50:00,44.4,40.8,29.66,WSW,237,4.0,4.0,87,0.00,,,0.41,meteohub,2013-02-28 03:50:00,
2013-02-27 22:51:00,44.4,40.8,29.66,WSW,246,4.0,4.0,87,0.00,,,0.41,meteohub,2013-02-28 03:51:00,
2013-02-27 22:55:00,44.6,41.0,29.66,SW,236,1.0,7.0,87,0.00,,,0.41,meteohub,2013-02-28 03:55:00,
2013-02-27 22:56:00,44.6,41.0,29.66,SW,236,3.0,7.0,87,0.00,,,0.41,meteohub,2013-02-28 03:56:00,
2013-02-27 23:00:00,44.8,41.2,29.66,WSW,248,2.0,7.0,87,0.00,,,0.41,meteohub,2013-02-28 04:00:00,
2013-02-27 23:01:00,44.8,41.2,29.66,WSW,248,1.0,7.0,87,0.00,,,0.41,meteohub,2013-02-28 04:01:00,
2013-02-27 23:02:00,44.8,41.2,29.66,WSW,248,3.0,7.0,87,0.00,,,0.41,meteohub,2013-02-28 04:02:00,
2013-02-27 23:06:00,45.0,41.4,29.66,SW,236,3.0,4.0,87,0.00,,,0.41,meteohub,2013-02-28 04:06:00,
2013-02-27 23:07:00,45.0,41.4,29.66,SW,236,0.0,4.0,87,0.00,,,0.41,meteohub,2013-02-28 04:07:00,
2013-02-27 23:11:00,45.0,41.0,29.66,SW,236,4.0,4.0,86,0.00,,,0.41,meteohub,2013-02-28 04:11:00,
2013-02-27 23:12:00,45.0,41.0,29.66,SW,234,2.0,4.0,86,0.00,,,0.41,meteohub,2013-02-28 04:12:00,
2013-02-27 23:16:00,45.0,41.0,29.65,WSW,238,0.0,4.0,86,0.00,,,0.41,meteohub,2013-02-28 04:16:00,
2013-02-27 23:17:00,45.0,41.0,29.65,WSW,238,3.0,4.0,86,0.00,,,0.41,meteohub,2013-02-28 04:17:00,
2013-02-27 23:22:00,45.0,41.0,29.66,WSW,238,3.0,5.0,86,0.00,,,0.41,meteohub,2013-02-28 04:22:00,
2013-02-27 23:27:00,45.0,41.0,29.65,SW,231,3.0,5.0,86,0.00,,,0.41,meteohub,2013-02-28 04:27:00,
2013-02-27 23:28:00,45.0,41.0,29.65,SW,229,1.0,5.0,86,0.00,,,0.41,meteohub,2013-02-28 04:28:00,
2013-02-27 23:32:00,45.0,41.0,29.65,WSW,237,2.0,5.0,86,0.00,,,0.41,meteohub,2013-02-28 04:32:00,
2013-02-27 23:33:00,45.0,41.0,29.65,SW,233,0.0,5.0,86,0.00,,,0.41,meteohub,2013-02-28 04:33:00,
2013-02-27 23:38:00,45.1,40.8,29.65,WSW,244,2.0,5.0,85,0.00,,,0.41,meteohub,2013-02-28 04:38:00,
2013-02-27 23:43:00,45.5,41.0,29.65,SW,227,1.0,5.0,84,0.00,,,0.41,meteohub,2013-02-28 04:43:00,
2013-02-27 23:48:00,45.7,40.8,29.65,SW,229,2.0,6.0,83,0.00,,,0.41,meteohub,2013-02-28 04:48:00,
2013-02-27 23:53:00,45.7,40.8,29.65,WSW,240,0.0,6.0,83,0.00,,,0.41,meteohub,2013-02-28 04:53:00,
2013-02-27 23:54:00,45.7,40.8,29.65,WSW,240,0.0,6.0,83,0.00,,,0.41,meteohub,2013-02-28 04:54:00,
2013-02-27 23:58:00,45.7,40.5,29.65,SW,233,1.0,6.0,82,0.00,,,0.41,meteohub,2013-02-28 04:58:00,
2013-02-27 23:59:00,45.7,40.5,29.65,SW,233,1.0,6.0,82,0.00,,,0.41,meteohub,2013-02-28 04:59:00,